<?xml version="1.0" encoding="UTF-8" standalone="no" ?>
<gpx xmlns="http://www.topografix.com/GPX/1/1" xmlns:xsi="http://www.w3.org/2001/XMLSchema-instance" xsi:schemaLocation="http://www.topografix.com/GPX/1/1 http://www.topografix.com/GPX/1/1/gpx.xsd" version="1.1" creator="VisuGPX - https://www.visugpx.com">
  <metadata>
    <name>Saint-Laurent-sur-Sèvre Marche 26 avr. 2021 à 14:00</name>
    <desc><![CDATA[Boucle à partir des étangs. Chemin accidenté.]]></desc>
  </metadata>
  <trk>
    <name><![CDATA[Saint-Laurent-sur-Sèvre Marche 26 avr. 2021 à 14:00]]></name>
    <trkseg>
      <trkpt lat="46.95983" lon="-0.90011">
        <ele>122.41741943359</ele>
        <time>2021-04-26T12:00:39Z</time>
      </trkpt>
      <trkpt lat="46.95958" lon="-0.90008">
        <ele>136.18481445312</ele>
        <time>2021-04-26T12:00:44Z</time>
      </trkpt>
      <trkpt lat="46.95952" lon="-0.90017">
        <ele>131.42010498047</ele>
        <time>2021-04-26T12:00:56Z</time>
      </trkpt>
      <trkpt lat="46.95946" lon="-0.90027">
        <ele>132.2294921875</ele>
        <time>2021-04-26T12:01:10Z</time>
      </trkpt>
      <trkpt lat="46.95954" lon="-0.90031">
        <ele>127.18347167969</ele>
        <time>2021-04-26T12:01:45Z</time>
      </trkpt>
      <trkpt lat="46.95962" lon="-0.90034">
        <ele>132.11566162109</ele>
        <time>2021-04-26T12:01:55Z</time>
      </trkpt>
      <trkpt lat="46.95971" lon="-0.90034">
        <ele>131.94970703125</ele>
        <time>2021-04-26T12:02:08Z</time>
      </trkpt>
      <trkpt lat="46.95979" lon="-0.90036">
        <ele>134.53930664062</ele>
        <time>2021-04-26T12:02:13Z</time>
      </trkpt>
      <trkpt lat="46.95986" lon="-0.90042">
        <ele>138.35339355469</ele>
        <time>2021-04-26T12:02:18Z</time>
      </trkpt>
      <trkpt lat="46.95994" lon="-0.90045">
        <ele>139.9833984375</ele>
        <time>2021-04-26T12:02:23Z</time>
      </trkpt>
      <trkpt lat="46.96001" lon="-0.90047">
        <ele>138.19476318359</ele>
        <time>2021-04-26T12:02:28Z</time>
      </trkpt>
      <trkpt lat="46.96009" lon="-0.90049">
        <ele>139.47180175781</ele>
        <time>2021-04-26T12:02:33Z</time>
      </trkpt>
      <trkpt lat="46.96017" lon="-0.90052">
        <ele>143.27111816406</ele>
        <time>2021-04-26T12:02:40Z</time>
      </trkpt>
      <trkpt lat="46.96025" lon="-0.90054">
        <ele>141.341796875</ele>
        <time>2021-04-26T12:02:45Z</time>
      </trkpt>
      <trkpt lat="46.96034" lon="-0.90057">
        <ele>143.75830078125</ele>
        <time>2021-04-26T12:02:50Z</time>
      </trkpt>
      <trkpt lat="46.96042" lon="-0.90057">
        <ele>140.26782226562</ele>
        <time>2021-04-26T12:02:59Z</time>
      </trkpt>
      <trkpt lat="46.96051" lon="-0.90058">
        <ele>140.9365234375</ele>
        <time>2021-04-26T12:03:06Z</time>
      </trkpt>
      <trkpt lat="46.96059" lon="-0.90058">
        <ele>140.70983886719</ele>
        <time>2021-04-26T12:03:15Z</time>
      </trkpt>
      <trkpt lat="46.96067" lon="-0.90059">
        <ele>142.13366699219</ele>
        <time>2021-04-26T12:03:27Z</time>
      </trkpt>
      <trkpt lat="46.96075" lon="-0.90057">
        <ele>144.17517089844</ele>
        <time>2021-04-26T12:03:32Z</time>
      </trkpt>
      <trkpt lat="46.96084" lon="-0.90056">
        <ele>147.32989501953</ele>
        <time>2021-04-26T12:03:37Z</time>
      </trkpt>
      <trkpt lat="46.96093" lon="-0.90053">
        <ele>143.33251953125</ele>
        <time>2021-04-26T12:03:44Z</time>
      </trkpt>
      <trkpt lat="46.96101" lon="-0.90051">
        <ele>140.27661132812</ele>
        <time>2021-04-26T12:03:50Z</time>
      </trkpt>
      <trkpt lat="46.96109" lon="-0.90051">
        <ele>142.73065185547</ele>
        <time>2021-04-26T12:03:56Z</time>
      </trkpt>
      <trkpt lat="46.96117" lon="-0.90053">
        <ele>138.06915283203</ele>
        <time>2021-04-26T12:04:04Z</time>
      </trkpt>
      <trkpt lat="46.96124" lon="-0.90059">
        <ele>136.41168212891</ele>
        <time>2021-04-26T12:04:14Z</time>
      </trkpt>
      <trkpt lat="46.96132" lon="-0.90065">
        <ele>132.96612548828</ele>
        <time>2021-04-26T12:04:22Z</time>
      </trkpt>
      <trkpt lat="46.9614" lon="-0.90071">
        <ele>135.97778320312</ele>
        <time>2021-04-26T12:04:30Z</time>
      </trkpt>
      <trkpt lat="46.96149" lon="-0.90072">
        <ele>137.61535644531</ele>
        <time>2021-04-26T12:04:37Z</time>
      </trkpt>
      <trkpt lat="46.96157" lon="-0.90075">
        <ele>132.78582763672</ele>
        <time>2021-04-26T12:04:44Z</time>
      </trkpt>
      <trkpt lat="46.96165" lon="-0.90081">
        <ele>130.25183105469</ele>
        <time>2021-04-26T12:04:52Z</time>
      </trkpt>
      <trkpt lat="46.96171" lon="-0.90087">
        <ele>131.04638671875</ele>
        <time>2021-04-26T12:05:01Z</time>
      </trkpt>
      <trkpt lat="46.96179" lon="-0.90093">
        <ele>128.87438964844</ele>
        <time>2021-04-26T12:05:07Z</time>
      </trkpt>
      <trkpt lat="46.96186" lon="-0.90097">
        <ele>129.68426513672</ele>
        <time>2021-04-26T12:05:12Z</time>
      </trkpt>
      <trkpt lat="46.96194" lon="-0.90103">
        <ele>132.25720214844</ele>
        <time>2021-04-26T12:05:18Z</time>
      </trkpt>
      <trkpt lat="46.96202" lon="-0.90108">
        <ele>130.24591064453</ele>
        <time>2021-04-26T12:05:26Z</time>
      </trkpt>
      <trkpt lat="46.96209" lon="-0.90114">
        <ele>129.23748779297</ele>
        <time>2021-04-26T12:05:36Z</time>
      </trkpt>
      <trkpt lat="46.96217" lon="-0.90115">
        <ele>129.67742919922</ele>
        <time>2021-04-26T12:05:43Z</time>
      </trkpt>
      <trkpt lat="46.96225" lon="-0.9012">
        <ele>129.63598632812</ele>
        <time>2021-04-26T12:05:50Z</time>
      </trkpt>
      <trkpt lat="46.96232" lon="-0.90127">
        <ele>126.34063720703</ele>
        <time>2021-04-26T12:05:59Z</time>
      </trkpt>
      <trkpt lat="46.96239" lon="-0.90133">
        <ele>128.47161865234</ele>
        <time>2021-04-26T12:06:14Z</time>
      </trkpt>
      <trkpt lat="46.96247" lon="-0.90138">
        <ele>129.77587890625</ele>
        <time>2021-04-26T12:06:21Z</time>
      </trkpt>
      <trkpt lat="46.96256" lon="-0.90139">
        <ele>128.94415283203</ele>
        <time>2021-04-26T12:06:27Z</time>
      </trkpt>
      <trkpt lat="46.96264" lon="-0.90142">
        <ele>133.72326660156</ele>
        <time>2021-04-26T12:06:36Z</time>
      </trkpt>
      <trkpt lat="46.96272" lon="-0.90143">
        <ele>133.83038330078</ele>
        <time>2021-04-26T12:06:42Z</time>
      </trkpt>
      <trkpt lat="46.9628" lon="-0.90141">
        <ele>133.23150634766</ele>
        <time>2021-04-26T12:06:48Z</time>
      </trkpt>
      <trkpt lat="46.96288" lon="-0.90139">
        <ele>133.56292724609</ele>
        <time>2021-04-26T12:06:53Z</time>
      </trkpt>
      <trkpt lat="46.96296" lon="-0.90135">
        <ele>134.33117675781</ele>
        <time>2021-04-26T12:07:01Z</time>
      </trkpt>
      <trkpt lat="46.96305" lon="-0.90135">
        <ele>132.46368408203</ele>
        <time>2021-04-26T12:07:08Z</time>
      </trkpt>
      <trkpt lat="46.96313" lon="-0.90133">
        <ele>131.09167480469</ele>
        <time>2021-04-26T12:07:15Z</time>
      </trkpt>
      <trkpt lat="46.96321" lon="-0.90137">
        <ele>126.70678710938</ele>
        <time>2021-04-26T12:07:27Z</time>
      </trkpt>
      <trkpt lat="46.96327" lon="-0.90146">
        <ele>127.46856689453</ele>
        <time>2021-04-26T12:07:36Z</time>
      </trkpt>
      <trkpt lat="46.96332" lon="-0.90157">
        <ele>126.55047607422</ele>
        <time>2021-04-26T12:07:43Z</time>
      </trkpt>
      <trkpt lat="46.96337" lon="-0.90167">
        <ele>125.26635742188</ele>
        <time>2021-04-26T12:07:52Z</time>
      </trkpt>
      <trkpt lat="46.96341" lon="-0.90178">
        <ele>125.06652832031</ele>
        <time>2021-04-26T12:08:01Z</time>
      </trkpt>
      <trkpt lat="46.96345" lon="-0.9019">
        <ele>127.41363525391</ele>
        <time>2021-04-26T12:08:08Z</time>
      </trkpt>
      <trkpt lat="46.96345" lon="-0.90201">
        <ele>127.06311035156</ele>
        <time>2021-04-26T12:08:15Z</time>
      </trkpt>
      <trkpt lat="46.96345" lon="-0.90214">
        <ele>126.42724609375</ele>
        <time>2021-04-26T12:08:21Z</time>
      </trkpt>
      <trkpt lat="46.96346" lon="-0.90226">
        <ele>125.96398925781</ele>
        <time>2021-04-26T12:08:29Z</time>
      </trkpt>
      <trkpt lat="46.96349" lon="-0.90238">
        <ele>124.15173339844</ele>
        <time>2021-04-26T12:08:37Z</time>
      </trkpt>
      <trkpt lat="46.96353" lon="-0.90248">
        <ele>126.59423828125</ele>
        <time>2021-04-26T12:08:45Z</time>
      </trkpt>
      <trkpt lat="46.96354" lon="-0.90261">
        <ele>126.09777832031</ele>
        <time>2021-04-26T12:08:57Z</time>
      </trkpt>
      <trkpt lat="46.96357" lon="-0.90273">
        <ele>130.08074951172</ele>
        <time>2021-04-26T12:09:08Z</time>
      </trkpt>
      <trkpt lat="46.96364" lon="-0.90279">
        <ele>130.65435791016</ele>
        <time>2021-04-26T12:09:17Z</time>
      </trkpt>
      <trkpt lat="46.96372" lon="-0.90286">
        <ele>132.27496337891</ele>
        <time>2021-04-26T12:09:26Z</time>
      </trkpt>
      <trkpt lat="46.96381" lon="-0.90287">
        <ele>131.51245117188</ele>
        <time>2021-04-26T12:09:35Z</time>
      </trkpt>
      <trkpt lat="46.96387" lon="-0.90295">
        <ele>132.40240478516</ele>
        <time>2021-04-26T12:09:43Z</time>
      </trkpt>
      <trkpt lat="46.96395" lon="-0.903">
        <ele>136.083984375</ele>
        <time>2021-04-26T12:09:52Z</time>
      </trkpt>
      <trkpt lat="46.964" lon="-0.90309">
        <ele>139.33343505859</ele>
        <time>2021-04-26T12:10:01Z</time>
      </trkpt>
      <trkpt lat="46.96404" lon="-0.9032">
        <ele>138.51574707031</ele>
        <time>2021-04-26T12:10:10Z</time>
      </trkpt>
      <trkpt lat="46.9641" lon="-0.9033">
        <ele>139.55853271484</ele>
        <time>2021-04-26T12:10:21Z</time>
      </trkpt>
      <trkpt lat="46.96412" lon="-0.90342">
        <ele>139.33587646484</ele>
        <time>2021-04-26T12:10:31Z</time>
      </trkpt>
      <trkpt lat="46.96417" lon="-0.90351">
        <ele>138.76025390625</ele>
        <time>2021-04-26T12:10:41Z</time>
      </trkpt>
      <trkpt lat="46.96423" lon="-0.90359">
        <ele>137.03741455078</ele>
        <time>2021-04-26T12:10:49Z</time>
      </trkpt>
      <trkpt lat="46.96429" lon="-0.90367">
        <ele>139.52423095703</ele>
        <time>2021-04-26T12:10:57Z</time>
      </trkpt>
      <trkpt lat="46.96437" lon="-0.90372">
        <ele>139.47180175781</ele>
        <time>2021-04-26T12:11:04Z</time>
      </trkpt>
      <trkpt lat="46.96445" lon="-0.90377">
        <ele>140.02349853516</ele>
        <time>2021-04-26T12:11:11Z</time>
      </trkpt>
      <trkpt lat="46.96453" lon="-0.90381">
        <ele>138.42224121094</ele>
        <time>2021-04-26T12:11:17Z</time>
      </trkpt>
      <trkpt lat="46.96461" lon="-0.90385">
        <ele>139.80297851562</ele>
        <time>2021-04-26T12:11:25Z</time>
      </trkpt>
      <trkpt lat="46.96469" lon="-0.9039">
        <ele>144.87225341797</ele>
        <time>2021-04-26T12:11:34Z</time>
      </trkpt>
      <trkpt lat="46.96476" lon="-0.90395">
        <ele>144.20452880859</ele>
        <time>2021-04-26T12:11:42Z</time>
      </trkpt>
      <trkpt lat="46.96483" lon="-0.90401">
        <ele>145.11199951172</ele>
        <time>2021-04-26T12:11:48Z</time>
      </trkpt>
      <trkpt lat="46.96491" lon="-0.90405">
        <ele>143.2060546875</ele>
        <time>2021-04-26T12:11:55Z</time>
      </trkpt>
      <trkpt lat="46.965" lon="-0.90402">
        <ele>142.49444580078</ele>
        <time>2021-04-26T12:12:01Z</time>
      </trkpt>
      <trkpt lat="46.96508" lon="-0.90405">
        <ele>144.11010742188</ele>
        <time>2021-04-26T12:12:08Z</time>
      </trkpt>
      <trkpt lat="46.96513" lon="-0.90415">
        <ele>143.44458007812</ele>
        <time>2021-04-26T12:12:14Z</time>
      </trkpt>
      <trkpt lat="46.96515" lon="-0.90426">
        <ele>145.38757324219</ele>
        <time>2021-04-26T12:12:22Z</time>
      </trkpt>
      <trkpt lat="46.96516" lon="-0.90437">
        <ele>147.47216796875</ele>
        <time>2021-04-26T12:12:29Z</time>
      </trkpt>
      <trkpt lat="46.9652" lon="-0.90447">
        <ele>144.71429443359</ele>
        <time>2021-04-26T12:12:35Z</time>
      </trkpt>
      <trkpt lat="46.96527" lon="-0.90454">
        <ele>144.51647949219</ele>
        <time>2021-04-26T12:12:42Z</time>
      </trkpt>
      <trkpt lat="46.96528" lon="-0.90466">
        <ele>143.61584472656</ele>
        <time>2021-04-26T12:12:49Z</time>
      </trkpt>
      <trkpt lat="46.96531" lon="-0.90478">
        <ele>143.47326660156</ele>
        <time>2021-04-26T12:13:00Z</time>
      </trkpt>
      <trkpt lat="46.96534" lon="-0.90489">
        <ele>143.49200439453</ele>
        <time>2021-04-26T12:13:09Z</time>
      </trkpt>
      <trkpt lat="46.96537" lon="-0.90502">
        <ele>145.20812988281</ele>
        <time>2021-04-26T12:13:18Z</time>
      </trkpt>
      <trkpt lat="46.96542" lon="-0.9051">
        <ele>146.44604492188</ele>
        <time>2021-04-26T12:13:26Z</time>
      </trkpt>
      <trkpt lat="46.96551" lon="-0.90513">
        <ele>146.40234375</ele>
        <time>2021-04-26T12:13:34Z</time>
      </trkpt>
      <trkpt lat="46.96556" lon="-0.90523">
        <ele>145.91857910156</ele>
        <time>2021-04-26T12:13:42Z</time>
      </trkpt>
      <trkpt lat="46.9656" lon="-0.90535">
        <ele>143.54370117188</ele>
        <time>2021-04-26T12:13:51Z</time>
      </trkpt>
      <trkpt lat="46.96562" lon="-0.90547">
        <ele>144.33770751953</ele>
        <time>2021-04-26T12:13:59Z</time>
      </trkpt>
      <trkpt lat="46.9656" lon="-0.9056">
        <ele>144.2109375</ele>
        <time>2021-04-26T12:14:07Z</time>
      </trkpt>
      <trkpt lat="46.96554" lon="-0.90568">
        <ele>146.53149414062</ele>
        <time>2021-04-26T12:14:15Z</time>
      </trkpt>
      <trkpt lat="46.9655" lon="-0.90579">
        <ele>147.26733398438</ele>
        <time>2021-04-26T12:14:24Z</time>
      </trkpt>
      <trkpt lat="46.96549" lon="-0.90592">
        <ele>144.21240234375</ele>
        <time>2021-04-26T12:14:33Z</time>
      </trkpt>
      <trkpt lat="46.96544" lon="-0.90602">
        <ele>148.51635742188</ele>
        <time>2021-04-26T12:14:41Z</time>
      </trkpt>
      <trkpt lat="46.9654" lon="-0.90612">
        <ele>151.22686767578</ele>
        <time>2021-04-26T12:14:49Z</time>
      </trkpt>
      <trkpt lat="46.96536" lon="-0.90623">
        <ele>152.55749511719</ele>
        <time>2021-04-26T12:14:56Z</time>
      </trkpt>
      <trkpt lat="46.9653" lon="-0.90632">
        <ele>153.9326171875</ele>
        <time>2021-04-26T12:15:09Z</time>
      </trkpt>
      <trkpt lat="46.96526" lon="-0.90644">
        <ele>155.47241210938</ele>
        <time>2021-04-26T12:15:16Z</time>
      </trkpt>
      <trkpt lat="46.9652" lon="-0.90653">
        <ele>156.20275878906</ele>
        <time>2021-04-26T12:15:22Z</time>
      </trkpt>
      <trkpt lat="46.96514" lon="-0.90661">
        <ele>151.76251220703</ele>
        <time>2021-04-26T12:15:28Z</time>
      </trkpt>
      <trkpt lat="46.9651" lon="-0.90671">
        <ele>153.28759765625</ele>
        <time>2021-04-26T12:15:34Z</time>
      </trkpt>
      <trkpt lat="46.96509" lon="-0.90684">
        <ele>152.60473632812</ele>
        <time>2021-04-26T12:15:40Z</time>
      </trkpt>
      <trkpt lat="46.96505" lon="-0.90694">
        <ele>154.03210449219</ele>
        <time>2021-04-26T12:15:48Z</time>
      </trkpt>
      <trkpt lat="46.96504" lon="-0.90706">
        <ele>152.79211425781</ele>
        <time>2021-04-26T12:15:54Z</time>
      </trkpt>
      <trkpt lat="46.965" lon="-0.90716">
        <ele>153.43884277344</ele>
        <time>2021-04-26T12:16:00Z</time>
      </trkpt>
      <trkpt lat="46.96495" lon="-0.90726">
        <ele>151.38952636719</ele>
        <time>2021-04-26T12:16:06Z</time>
      </trkpt>
      <trkpt lat="46.96491" lon="-0.90738">
        <ele>150.76672363281</ele>
        <time>2021-04-26T12:16:15Z</time>
      </trkpt>
      <trkpt lat="46.9649" lon="-0.90749">
        <ele>151.65808105469</ele>
        <time>2021-04-26T12:16:23Z</time>
      </trkpt>
      <trkpt lat="46.96488" lon="-0.9076">
        <ele>153.77648925781</ele>
        <time>2021-04-26T12:16:29Z</time>
      </trkpt>
      <trkpt lat="46.96487" lon="-0.90773">
        <ele>155.61206054688</ele>
        <time>2021-04-26T12:16:40Z</time>
      </trkpt>
      <trkpt lat="46.96486" lon="-0.90786">
        <ele>156.24279785156</ele>
        <time>2021-04-26T12:16:48Z</time>
      </trkpt>
      <trkpt lat="46.96485" lon="-0.90798">
        <ele>156.40985107422</ele>
        <time>2021-04-26T12:16:56Z</time>
      </trkpt>
      <trkpt lat="46.96482" lon="-0.90809">
        <ele>156.55377197266</ele>
        <time>2021-04-26T12:17:04Z</time>
      </trkpt>
      <trkpt lat="46.96486" lon="-0.9082">
        <ele>159.33166503906</ele>
        <time>2021-04-26T12:17:12Z</time>
      </trkpt>
      <trkpt lat="46.96488" lon="-0.90832">
        <ele>160.19555664062</ele>
        <time>2021-04-26T12:17:19Z</time>
      </trkpt>
      <trkpt lat="46.96489" lon="-0.90845">
        <ele>155.53381347656</ele>
        <time>2021-04-26T12:17:29Z</time>
      </trkpt>
      <trkpt lat="46.96493" lon="-0.90856">
        <ele>154.60235595703</ele>
        <time>2021-04-26T12:17:38Z</time>
      </trkpt>
      <trkpt lat="46.96494" lon="-0.90868">
        <ele>152.71179199219</ele>
        <time>2021-04-26T12:17:46Z</time>
      </trkpt>
      <trkpt lat="46.96499" lon="-0.90878">
        <ele>155.22253417969</ele>
        <time>2021-04-26T12:17:52Z</time>
      </trkpt>
      <trkpt lat="46.96506" lon="-0.90886">
        <ele>153.67700195312</ele>
        <time>2021-04-26T12:17:59Z</time>
      </trkpt>
      <trkpt lat="46.96512" lon="-0.90894">
        <ele>156.03784179688</ele>
        <time>2021-04-26T12:18:07Z</time>
      </trkpt>
      <trkpt lat="46.9652" lon="-0.90897">
        <ele>152.39611816406</ele>
        <time>2021-04-26T12:18:19Z</time>
      </trkpt>
      <trkpt lat="46.96529" lon="-0.90897">
        <ele>150.93713378906</ele>
        <time>2021-04-26T12:18:28Z</time>
      </trkpt>
      <trkpt lat="46.96537" lon="-0.90896">
        <ele>152.77178955078</ele>
        <time>2021-04-26T12:18:34Z</time>
      </trkpt>
      <trkpt lat="46.96545" lon="-0.90896">
        <ele>153.08142089844</ele>
        <time>2021-04-26T12:18:42Z</time>
      </trkpt>
      <trkpt lat="46.96552" lon="-0.9089">
        <ele>150.9072265625</ele>
        <time>2021-04-26T12:18:48Z</time>
      </trkpt>
      <trkpt lat="46.9656" lon="-0.90885">
        <ele>151.04663085938</ele>
        <time>2021-04-26T12:18:54Z</time>
      </trkpt>
      <trkpt lat="46.96567" lon="-0.90883">
        <ele>151.20190429688</ele>
        <time>2021-04-26T12:18:59Z</time>
      </trkpt>
      <trkpt lat="46.96576" lon="-0.90881">
        <ele>150.41186523438</ele>
        <time>2021-04-26T12:19:06Z</time>
      </trkpt>
      <trkpt lat="46.96583" lon="-0.90886">
        <ele>151.22491455078</ele>
        <time>2021-04-26T12:19:15Z</time>
      </trkpt>
      <trkpt lat="46.96591" lon="-0.90892">
        <ele>152.17993164062</ele>
        <time>2021-04-26T12:19:23Z</time>
      </trkpt>
      <trkpt lat="46.96598" lon="-0.90897">
        <ele>153.06774902344</ele>
        <time>2021-04-26T12:19:29Z</time>
      </trkpt>
      <trkpt lat="46.96605" lon="-0.90902">
        <ele>153.27764892578</ele>
        <time>2021-04-26T12:19:35Z</time>
      </trkpt>
      <trkpt lat="46.96613" lon="-0.90905">
        <ele>151.72290039062</ele>
        <time>2021-04-26T12:19:42Z</time>
      </trkpt>
      <trkpt lat="46.96621" lon="-0.90907">
        <ele>152.08135986328</ele>
        <time>2021-04-26T12:19:49Z</time>
      </trkpt>
      <trkpt lat="46.96627" lon="-0.90916">
        <ele>154.03723144531</ele>
        <time>2021-04-26T12:19:57Z</time>
      </trkpt>
      <trkpt lat="46.96635" lon="-0.9092">
        <ele>150.021484375</ele>
        <time>2021-04-26T12:20:04Z</time>
      </trkpt>
      <trkpt lat="46.96643" lon="-0.90923">
        <ele>150.361328125</ele>
        <time>2021-04-26T12:20:12Z</time>
      </trkpt>
      <trkpt lat="46.96651" lon="-0.90924">
        <ele>148.22381591797</ele>
        <time>2021-04-26T12:20:19Z</time>
      </trkpt>
      <trkpt lat="46.96659" lon="-0.90922">
        <ele>150.1708984375</ele>
        <time>2021-04-26T12:20:25Z</time>
      </trkpt>
      <trkpt lat="46.96668" lon="-0.9092">
        <ele>148.53985595703</ele>
        <time>2021-04-26T12:20:30Z</time>
      </trkpt>
      <trkpt lat="46.96676" lon="-0.90923">
        <ele>150.25524902344</ele>
        <time>2021-04-26T12:20:44Z</time>
      </trkpt>
      <trkpt lat="46.96683" lon="-0.90919">
        <ele>149.05432128906</ele>
        <time>2021-04-26T12:20:50Z</time>
      </trkpt>
      <trkpt lat="46.9669" lon="-0.90915">
        <ele>150.22198486328</ele>
        <time>2021-04-26T12:20:55Z</time>
      </trkpt>
      <trkpt lat="46.96698" lon="-0.90916">
        <ele>149.09893798828</ele>
        <time>2021-04-26T12:21:00Z</time>
      </trkpt>
      <trkpt lat="46.96706" lon="-0.9092">
        <ele>148.91979980469</ele>
        <time>2021-04-26T12:21:07Z</time>
      </trkpt>
      <trkpt lat="46.96711" lon="-0.9093">
        <ele>147.39465332031</ele>
        <time>2021-04-26T12:21:15Z</time>
      </trkpt>
      <trkpt lat="46.96712" lon="-0.90943">
        <ele>151.25604248047</ele>
        <time>2021-04-26T12:21:23Z</time>
      </trkpt>
      <trkpt lat="46.96709" lon="-0.90953">
        <ele>153.48211669922</ele>
        <time>2021-04-26T12:21:28Z</time>
      </trkpt>
      <trkpt lat="46.96708" lon="-0.90965">
        <ele>153.94482421875</ele>
        <time>2021-04-26T12:21:35Z</time>
      </trkpt>
      <trkpt lat="46.96711" lon="-0.90976">
        <ele>151.755859375</ele>
        <time>2021-04-26T12:21:43Z</time>
      </trkpt>
      <trkpt lat="46.96714" lon="-0.90988">
        <ele>151.05017089844</ele>
        <time>2021-04-26T12:21:52Z</time>
      </trkpt>
      <trkpt lat="46.9672" lon="-0.90996">
        <ele>154.77838134766</ele>
        <time>2021-04-26T12:21:59Z</time>
      </trkpt>
      <trkpt lat="46.96724" lon="-0.91007">
        <ele>153.12133789062</ele>
        <time>2021-04-26T12:22:07Z</time>
      </trkpt>
      <trkpt lat="46.96725" lon="-0.91019">
        <ele>151.79150390625</ele>
        <time>2021-04-26T12:22:14Z</time>
      </trkpt>
      <trkpt lat="46.96721" lon="-0.91031">
        <ele>151.67749023438</ele>
        <time>2021-04-26T12:22:19Z</time>
      </trkpt>
      <trkpt lat="46.96723" lon="-0.91041">
        <ele>154.07159423828</ele>
        <time>2021-04-26T12:22:25Z</time>
      </trkpt>
      <trkpt lat="46.96726" lon="-0.91053">
        <ele>150.76647949219</ele>
        <time>2021-04-26T12:22:31Z</time>
      </trkpt>
      <trkpt lat="46.96734" lon="-0.91059">
        <ele>146.5146484375</ele>
        <time>2021-04-26T12:22:39Z</time>
      </trkpt>
      <trkpt lat="46.96737" lon="-0.9107">
        <ele>145.21850585938</ele>
        <time>2021-04-26T12:22:45Z</time>
      </trkpt>
      <trkpt lat="46.96739" lon="-0.91083">
        <ele>144.62445068359</ele>
        <time>2021-04-26T12:22:52Z</time>
      </trkpt>
      <trkpt lat="46.96741" lon="-0.91095">
        <ele>141.07928466797</ele>
        <time>2021-04-26T12:23:00Z</time>
      </trkpt>
      <trkpt lat="46.96748" lon="-0.91103">
        <ele>137.48883056641</ele>
        <time>2021-04-26T12:23:13Z</time>
      </trkpt>
      <trkpt lat="46.96756" lon="-0.911">
        <ele>137.43304443359</ele>
        <time>2021-04-26T12:23:23Z</time>
      </trkpt>
      <trkpt lat="46.96765" lon="-0.91099">
        <ele>135.68023681641</ele>
        <time>2021-04-26T12:23:32Z</time>
      </trkpt>
      <trkpt lat="46.96773" lon="-0.911">
        <ele>135.17614746094</ele>
        <time>2021-04-26T12:23:41Z</time>
      </trkpt>
      <trkpt lat="46.96776" lon="-0.91113">
        <ele>133.39019775391</ele>
        <time>2021-04-26T12:23:49Z</time>
      </trkpt>
      <trkpt lat="46.9678" lon="-0.91124">
        <ele>126.62750244141</ele>
        <time>2021-04-26T12:23:57Z</time>
      </trkpt>
      <trkpt lat="46.96783" lon="-0.91134">
        <ele>128.54766845703</ele>
        <time>2021-04-26T12:24:02Z</time>
      </trkpt>
      <trkpt lat="46.96787" lon="-0.91146">
        <ele>131.34643554688</ele>
        <time>2021-04-26T12:24:11Z</time>
      </trkpt>
      <trkpt lat="46.96792" lon="-0.91156">
        <ele>129.93615722656</ele>
        <time>2021-04-26T12:24:20Z</time>
      </trkpt>
      <trkpt lat="46.96796" lon="-0.91166">
        <ele>128.53277587891</ele>
        <time>2021-04-26T12:24:32Z</time>
      </trkpt>
      <trkpt lat="46.968" lon="-0.91177">
        <ele>128.56677246094</ele>
        <time>2021-04-26T12:24:38Z</time>
      </trkpt>
      <trkpt lat="46.96797" lon="-0.91189">
        <ele>127.37133789062</ele>
        <time>2021-04-26T12:24:45Z</time>
      </trkpt>
      <trkpt lat="46.96799" lon="-0.91201">
        <ele>132.33471679688</ele>
        <time>2021-04-26T12:24:53Z</time>
      </trkpt>
      <trkpt lat="46.96799" lon="-0.91213">
        <ele>130.33276367188</ele>
        <time>2021-04-26T12:25:01Z</time>
      </trkpt>
      <trkpt lat="46.96796" lon="-0.91225">
        <ele>129.50134277344</ele>
        <time>2021-04-26T12:25:11Z</time>
      </trkpt>
      <trkpt lat="46.96795" lon="-0.91237">
        <ele>130.76013183594</ele>
        <time>2021-04-26T12:25:21Z</time>
      </trkpt>
      <trkpt lat="46.96797" lon="-0.91249">
        <ele>127.26843261719</ele>
        <time>2021-04-26T12:25:29Z</time>
      </trkpt>
      <trkpt lat="46.96797" lon="-0.91262">
        <ele>128.85333251953</ele>
        <time>2021-04-26T12:25:38Z</time>
      </trkpt>
      <trkpt lat="46.96795" lon="-0.91273">
        <ele>128.92517089844</ele>
        <time>2021-04-26T12:25:46Z</time>
      </trkpt>
      <trkpt lat="46.96792" lon="-0.91284">
        <ele>130.33282470703</ele>
        <time>2021-04-26T12:25:57Z</time>
      </trkpt>
      <trkpt lat="46.96789" lon="-0.91296">
        <ele>130.13739013672</ele>
        <time>2021-04-26T12:26:09Z</time>
      </trkpt>
      <trkpt lat="46.96785" lon="-0.91306">
        <ele>128.35198974609</ele>
        <time>2021-04-26T12:26:20Z</time>
      </trkpt>
      <trkpt lat="46.96784" lon="-0.91318">
        <ele>127.53045654297</ele>
        <time>2021-04-26T12:26:31Z</time>
      </trkpt>
      <trkpt lat="46.96779" lon="-0.91327">
        <ele>131.95745849609</ele>
        <time>2021-04-26T12:26:38Z</time>
      </trkpt>
      <trkpt lat="46.96775" lon="-0.91338">
        <ele>133.40551757812</ele>
        <time>2021-04-26T12:26:47Z</time>
      </trkpt>
      <trkpt lat="46.96769" lon="-0.91349">
        <ele>133.91320800781</ele>
        <time>2021-04-26T12:26:56Z</time>
      </trkpt>
      <trkpt lat="46.96766" lon="-0.9136">
        <ele>132.42938232422</ele>
        <time>2021-04-26T12:27:10Z</time>
      </trkpt>
      <trkpt lat="46.96763" lon="-0.91371">
        <ele>129.55822753906</ele>
        <time>2021-04-26T12:27:20Z</time>
      </trkpt>
      <trkpt lat="46.96759" lon="-0.91382">
        <ele>126.11779785156</ele>
        <time>2021-04-26T12:27:35Z</time>
      </trkpt>
      <trkpt lat="46.96756" lon="-0.91393">
        <ele>129.52362060547</ele>
        <time>2021-04-26T12:27:41Z</time>
      </trkpt>
      <trkpt lat="46.96751" lon="-0.91402">
        <ele>132.6611328125</ele>
        <time>2021-04-26T12:27:48Z</time>
      </trkpt>
      <trkpt lat="46.96745" lon="-0.91409">
        <ele>131.56793212891</ele>
        <time>2021-04-26T12:27:56Z</time>
      </trkpt>
      <trkpt lat="46.96737" lon="-0.9141">
        <ele>132.40551757812</ele>
        <time>2021-04-26T12:28:01Z</time>
      </trkpt>
      <trkpt lat="46.9673" lon="-0.91417">
        <ele>129.56494140625</ele>
        <time>2021-04-26T12:28:11Z</time>
      </trkpt>
      <trkpt lat="46.96722" lon="-0.91422">
        <ele>126.44177246094</ele>
        <time>2021-04-26T12:28:22Z</time>
      </trkpt>
      <trkpt lat="46.96714" lon="-0.91426">
        <ele>123.42248535156</ele>
        <time>2021-04-26T12:28:29Z</time>
      </trkpt>
      <trkpt lat="46.96706" lon="-0.91429">
        <ele>124.51531982422</ele>
        <time>2021-04-26T12:28:36Z</time>
      </trkpt>
      <trkpt lat="46.96699" lon="-0.91424">
        <ele>123.20928955078</ele>
        <time>2021-04-26T12:28:42Z</time>
      </trkpt>
      <trkpt lat="46.9669" lon="-0.9142">
        <ele>120.51104736328</ele>
        <time>2021-04-26T12:28:52Z</time>
      </trkpt>
      <trkpt lat="46.96683" lon="-0.91412">
        <ele>124.77038574219</ele>
        <time>2021-04-26T12:29:00Z</time>
      </trkpt>
      <trkpt lat="46.96676" lon="-0.91419">
        <ele>123.296875</ele>
        <time>2021-04-26T12:29:09Z</time>
      </trkpt>
      <trkpt lat="46.96673" lon="-0.91431">
        <ele>121.05950927734</ele>
        <time>2021-04-26T12:29:18Z</time>
      </trkpt>
      <trkpt lat="46.96667" lon="-0.9144">
        <ele>121.60528564453</ele>
        <time>2021-04-26T12:29:27Z</time>
      </trkpt>
      <trkpt lat="46.96661" lon="-0.9145">
        <ele>123.46252441406</ele>
        <time>2021-04-26T12:29:50Z</time>
      </trkpt>
      <trkpt lat="46.96657" lon="-0.91461">
        <ele>129.5107421875</ele>
        <time>2021-04-26T12:30:05Z</time>
      </trkpt>
      <trkpt lat="46.96652" lon="-0.91471">
        <ele>131.82897949219</ele>
        <time>2021-04-26T12:30:16Z</time>
      </trkpt>
      <trkpt lat="46.96645" lon="-0.91479">
        <ele>131.48974609375</ele>
        <time>2021-04-26T12:30:27Z</time>
      </trkpt>
      <trkpt lat="46.96641" lon="-0.9149">
        <ele>134.80084228516</ele>
        <time>2021-04-26T12:30:36Z</time>
      </trkpt>
      <trkpt lat="46.96635" lon="-0.91499">
        <ele>137.50671386719</ele>
        <time>2021-04-26T12:30:46Z</time>
      </trkpt>
      <trkpt lat="46.96627" lon="-0.91496">
        <ele>140.02032470703</ele>
        <time>2021-04-26T12:33:34Z</time>
      </trkpt>
      <trkpt lat="46.96625" lon="-0.91508">
        <ele>138.54553222656</ele>
        <time>2021-04-26T12:33:44Z</time>
      </trkpt>
      <trkpt lat="46.96623" lon="-0.9152">
        <ele>139.48040771484</ele>
        <time>2021-04-26T12:33:59Z</time>
      </trkpt>
      <trkpt lat="46.96622" lon="-0.91533">
        <ele>138.71618652344</ele>
        <time>2021-04-26T12:34:11Z</time>
      </trkpt>
      <trkpt lat="46.96625" lon="-0.91545">
        <ele>131.52227783203</ele>
        <time>2021-04-26T12:34:28Z</time>
      </trkpt>
      <trkpt lat="46.96631" lon="-0.91555">
        <ele>127.71661376953</ele>
        <time>2021-04-26T12:34:39Z</time>
      </trkpt>
      <trkpt lat="46.96638" lon="-0.91562">
        <ele>126.51507568359</ele>
        <time>2021-04-26T12:35:00Z</time>
      </trkpt>
      <trkpt lat="46.96643" lon="-0.91572">
        <ele>123.54370117188</ele>
        <time>2021-04-26T12:35:15Z</time>
      </trkpt>
      <trkpt lat="46.96645" lon="-0.91585">
        <ele>121.21423339844</ele>
        <time>2021-04-26T12:35:28Z</time>
      </trkpt>
      <trkpt lat="46.9665" lon="-0.91596">
        <ele>116.50860595703</ele>
        <time>2021-04-26T12:35:41Z</time>
      </trkpt>
      <trkpt lat="46.96655" lon="-0.91605">
        <ele>116.51403808594</ele>
        <time>2021-04-26T12:35:51Z</time>
      </trkpt>
      <trkpt lat="46.96661" lon="-0.91614">
        <ele>116.1123046875</ele>
        <time>2021-04-26T12:35:58Z</time>
      </trkpt>
      <trkpt lat="46.96668" lon="-0.91621">
        <ele>116.60125732422</ele>
        <time>2021-04-26T12:36:13Z</time>
      </trkpt>
      <trkpt lat="46.96673" lon="-0.91631">
        <ele>114.79650878906</ele>
        <time>2021-04-26T12:36:21Z</time>
      </trkpt>
      <trkpt lat="46.96667" lon="-0.9164">
        <ele>116.09143066406</ele>
        <time>2021-04-26T12:36:33Z</time>
      </trkpt>
      <trkpt lat="46.96658" lon="-0.91637">
        <ele>118.64001464844</ele>
        <time>2021-04-26T12:36:47Z</time>
      </trkpt>
      <trkpt lat="46.96651" lon="-0.9164">
        <ele>116.64276123047</ele>
        <time>2021-04-26T12:36:55Z</time>
      </trkpt>
      <trkpt lat="46.96643" lon="-0.91644">
        <ele>117.98449707031</ele>
        <time>2021-04-26T12:37:03Z</time>
      </trkpt>
      <trkpt lat="46.96635" lon="-0.91648">
        <ele>118.02502441406</ele>
        <time>2021-04-26T12:37:11Z</time>
      </trkpt>
      <trkpt lat="46.96627" lon="-0.91652">
        <ele>119.56024169922</ele>
        <time>2021-04-26T12:37:18Z</time>
      </trkpt>
      <trkpt lat="46.96619" lon="-0.91656">
        <ele>120.91961669922</ele>
        <time>2021-04-26T12:37:24Z</time>
      </trkpt>
      <trkpt lat="46.9661" lon="-0.91657">
        <ele>120.58306884766</ele>
        <time>2021-04-26T12:37:30Z</time>
      </trkpt>
      <trkpt lat="46.96602" lon="-0.91657">
        <ele>112.94476318359</ele>
        <time>2021-04-26T12:37:39Z</time>
      </trkpt>
      <trkpt lat="46.96593" lon="-0.91657">
        <ele>112.57739257812</ele>
        <time>2021-04-26T12:37:48Z</time>
      </trkpt>
      <trkpt lat="46.96586" lon="-0.91654">
        <ele>115.83453369141</ele>
        <time>2021-04-26T12:37:58Z</time>
      </trkpt>
      <trkpt lat="46.96576" lon="-0.91655">
        <ele>117.47045898438</ele>
        <time>2021-04-26T12:38:03Z</time>
      </trkpt>
      <trkpt lat="46.96567" lon="-0.91655">
        <ele>118.41802978516</ele>
        <time>2021-04-26T12:38:12Z</time>
      </trkpt>
      <trkpt lat="46.96558" lon="-0.91652">
        <ele>119.87744140625</ele>
        <time>2021-04-26T12:38:21Z</time>
      </trkpt>
      <trkpt lat="46.9655" lon="-0.91652">
        <ele>114.88317871094</ele>
        <time>2021-04-26T12:38:29Z</time>
      </trkpt>
      <trkpt lat="46.96541" lon="-0.9165">
        <ele>116.40899658203</ele>
        <time>2021-04-26T12:38:43Z</time>
      </trkpt>
      <trkpt lat="46.96532" lon="-0.91649">
        <ele>119.0771484375</ele>
        <time>2021-04-26T12:38:52Z</time>
      </trkpt>
      <trkpt lat="46.96524" lon="-0.91649">
        <ele>117.49230957031</ele>
        <time>2021-04-26T12:38:57Z</time>
      </trkpt>
      <trkpt lat="46.96517" lon="-0.91654">
        <ele>120.94177246094</ele>
        <time>2021-04-26T12:39:04Z</time>
      </trkpt>
      <trkpt lat="46.96514" lon="-0.91666">
        <ele>123.46282958984</ele>
        <time>2021-04-26T12:39:12Z</time>
      </trkpt>
      <trkpt lat="46.9651" lon="-0.91678">
        <ele>124.82171630859</ele>
        <time>2021-04-26T12:39:24Z</time>
      </trkpt>
      <trkpt lat="46.96511" lon="-0.9169">
        <ele>117.37585449219</ele>
        <time>2021-04-26T12:39:36Z</time>
      </trkpt>
      <trkpt lat="46.96518" lon="-0.91697">
        <ele>114.04205322266</ele>
        <time>2021-04-26T12:39:45Z</time>
      </trkpt>
      <trkpt lat="46.96525" lon="-0.91702">
        <ele>114.25445556641</ele>
        <time>2021-04-26T12:39:52Z</time>
      </trkpt>
      <trkpt lat="46.96532" lon="-0.91709">
        <ele>112.49847412109</ele>
        <time>2021-04-26T12:39:59Z</time>
      </trkpt>
      <trkpt lat="46.96538" lon="-0.91719">
        <ele>111.52233886719</ele>
        <time>2021-04-26T12:40:07Z</time>
      </trkpt>
      <trkpt lat="46.96543" lon="-0.91729">
        <ele>111.76818847656</ele>
        <time>2021-04-26T12:40:16Z</time>
      </trkpt>
      <trkpt lat="46.96549" lon="-0.91737">
        <ele>111.29455566406</ele>
        <time>2021-04-26T12:40:24Z</time>
      </trkpt>
      <trkpt lat="46.96555" lon="-0.91746">
        <ele>106.89685058594</ele>
        <time>2021-04-26T12:40:35Z</time>
      </trkpt>
      <trkpt lat="46.9656" lon="-0.91756">
        <ele>106.33050537109</ele>
        <time>2021-04-26T12:40:44Z</time>
      </trkpt>
      <trkpt lat="46.96565" lon="-0.91767">
        <ele>103.65814208984</ele>
        <time>2021-04-26T12:40:52Z</time>
      </trkpt>
      <trkpt lat="46.96565" lon="-0.9178">
        <ele>101.06909179688</ele>
        <time>2021-04-26T12:41:00Z</time>
      </trkpt>
      <trkpt lat="46.96562" lon="-0.91792">
        <ele>101.58422851562</ele>
        <time>2021-04-26T12:41:06Z</time>
      </trkpt>
      <trkpt lat="46.96562" lon="-0.91804">
        <ele>104.70538330078</ele>
        <time>2021-04-26T12:41:11Z</time>
      </trkpt>
      <trkpt lat="46.96559" lon="-0.91817">
        <ele>105.4111328125</ele>
        <time>2021-04-26T12:41:18Z</time>
      </trkpt>
      <trkpt lat="46.96556" lon="-0.91827">
        <ele>107.18127441406</ele>
        <time>2021-04-26T12:41:24Z</time>
      </trkpt>
      <trkpt lat="46.96552" lon="-0.91837">
        <ele>108.06231689453</ele>
        <time>2021-04-26T12:41:30Z</time>
      </trkpt>
      <trkpt lat="46.96549" lon="-0.91849">
        <ele>106.12786865234</ele>
        <time>2021-04-26T12:41:39Z</time>
      </trkpt>
      <trkpt lat="46.96543" lon="-0.91859">
        <ele>107.67077636719</ele>
        <time>2021-04-26T12:41:47Z</time>
      </trkpt>
      <trkpt lat="46.96539" lon="-0.9187">
        <ele>108.40319824219</ele>
        <time>2021-04-26T12:41:53Z</time>
      </trkpt>
      <trkpt lat="46.96535" lon="-0.9188">
        <ele>105.50836181641</ele>
        <time>2021-04-26T12:42:01Z</time>
      </trkpt>
      <trkpt lat="46.96531" lon="-0.91891">
        <ele>103.94543457031</ele>
        <time>2021-04-26T12:42:07Z</time>
      </trkpt>
      <trkpt lat="46.96525" lon="-0.919">
        <ele>105.76293945312</ele>
        <time>2021-04-26T12:42:14Z</time>
      </trkpt>
      <trkpt lat="46.9652" lon="-0.91909">
        <ele>104.89782714844</ele>
        <time>2021-04-26T12:42:23Z</time>
      </trkpt>
      <trkpt lat="46.96512" lon="-0.91916">
        <ele>104.4248046875</ele>
        <time>2021-04-26T12:42:31Z</time>
      </trkpt>
      <trkpt lat="46.96503" lon="-0.91917">
        <ele>102.85577392578</ele>
        <time>2021-04-26T12:42:38Z</time>
      </trkpt>
      <trkpt lat="46.96495" lon="-0.91913">
        <ele>102.70526123047</ele>
        <time>2021-04-26T12:42:45Z</time>
      </trkpt>
      <trkpt lat="46.96486" lon="-0.91913">
        <ele>104.11346435547</ele>
        <time>2021-04-26T12:42:56Z</time>
      </trkpt>
      <trkpt lat="46.96478" lon="-0.91916">
        <ele>104.44421386719</ele>
        <time>2021-04-26T12:43:04Z</time>
      </trkpt>
      <trkpt lat="46.9647" lon="-0.91922">
        <ele>105.64154052734</ele>
        <time>2021-04-26T12:43:10Z</time>
      </trkpt>
      <trkpt lat="46.96463" lon="-0.91929">
        <ele>108.55487060547</ele>
        <time>2021-04-26T12:43:16Z</time>
      </trkpt>
      <trkpt lat="46.96458" lon="-0.91938">
        <ele>111.30505371094</ele>
        <time>2021-04-26T12:43:24Z</time>
      </trkpt>
      <trkpt lat="46.96451" lon="-0.91946">
        <ele>113.36163330078</ele>
        <time>2021-04-26T12:43:32Z</time>
      </trkpt>
      <trkpt lat="46.96444" lon="-0.91951">
        <ele>114.59838867188</ele>
        <time>2021-04-26T12:43:39Z</time>
      </trkpt>
      <trkpt lat="46.96436" lon="-0.91954">
        <ele>116.58721923828</ele>
        <time>2021-04-26T12:43:46Z</time>
      </trkpt>
      <trkpt lat="46.96429" lon="-0.91961">
        <ele>115.66125488281</ele>
        <time>2021-04-26T12:43:53Z</time>
      </trkpt>
      <trkpt lat="46.96423" lon="-0.91971">
        <ele>116.18798828125</ele>
        <time>2021-04-26T12:44:01Z</time>
      </trkpt>
      <trkpt lat="46.96418" lon="-0.91982">
        <ele>117.48522949219</ele>
        <time>2021-04-26T12:44:13Z</time>
      </trkpt>
      <trkpt lat="46.96419" lon="-0.91995">
        <ele>113.21130371094</ele>
        <time>2021-04-26T12:44:22Z</time>
      </trkpt>
      <trkpt lat="46.9642" lon="-0.92006">
        <ele>113.90454101562</ele>
        <time>2021-04-26T12:44:29Z</time>
      </trkpt>
      <trkpt lat="46.9642" lon="-0.92018">
        <ele>114.767578125</ele>
        <time>2021-04-26T12:44:36Z</time>
      </trkpt>
      <trkpt lat="46.96423" lon="-0.92031">
        <ele>114.34918212891</ele>
        <time>2021-04-26T12:44:43Z</time>
      </trkpt>
      <trkpt lat="46.96425" lon="-0.92042">
        <ele>113.953125</ele>
        <time>2021-04-26T12:44:50Z</time>
      </trkpt>
      <trkpt lat="46.96427" lon="-0.92054">
        <ele>113.99694824219</ele>
        <time>2021-04-26T12:44:57Z</time>
      </trkpt>
      <trkpt lat="46.96429" lon="-0.92065">
        <ele>113.39923095703</ele>
        <time>2021-04-26T12:45:04Z</time>
      </trkpt>
      <trkpt lat="46.96428" lon="-0.92077">
        <ele>113.62603759766</ele>
        <time>2021-04-26T12:45:12Z</time>
      </trkpt>
      <trkpt lat="46.96429" lon="-0.92089">
        <ele>115.31970214844</ele>
        <time>2021-04-26T12:45:22Z</time>
      </trkpt>
      <trkpt lat="46.96429" lon="-0.92102">
        <ele>114.37854003906</ele>
        <time>2021-04-26T12:45:30Z</time>
      </trkpt>
      <trkpt lat="46.96432" lon="-0.92113">
        <ele>113.95458984375</ele>
        <time>2021-04-26T12:45:36Z</time>
      </trkpt>
      <trkpt lat="46.96438" lon="-0.92121">
        <ele>112.02362060547</ele>
        <time>2021-04-26T12:45:44Z</time>
      </trkpt>
      <trkpt lat="46.96445" lon="-0.92126">
        <ele>111.35565185547</ele>
        <time>2021-04-26T12:45:52Z</time>
      </trkpt>
      <trkpt lat="46.96453" lon="-0.92128">
        <ele>110.51062011719</ele>
        <time>2021-04-26T12:46:01Z</time>
      </trkpt>
      <trkpt lat="46.96461" lon="-0.92133">
        <ele>112.52905273438</ele>
        <time>2021-04-26T12:46:08Z</time>
      </trkpt>
      <trkpt lat="46.96468" lon="-0.92137">
        <ele>111.26184082031</ele>
        <time>2021-04-26T12:46:15Z</time>
      </trkpt>
      <trkpt lat="46.96477" lon="-0.92139">
        <ele>109.4931640625</ele>
        <time>2021-04-26T12:46:25Z</time>
      </trkpt>
      <trkpt lat="46.96485" lon="-0.9214">
        <ele>109.181640625</ele>
        <time>2021-04-26T12:46:32Z</time>
      </trkpt>
      <trkpt lat="46.96492" lon="-0.92139">
        <ele>109.64117431641</ele>
        <time>2021-04-26T12:46:39Z</time>
      </trkpt>
      <trkpt lat="46.96501" lon="-0.92138">
        <ele>107.88696289062</ele>
        <time>2021-04-26T12:46:48Z</time>
      </trkpt>
      <trkpt lat="46.9651" lon="-0.92136">
        <ele>104.99975585938</ele>
        <time>2021-04-26T12:46:56Z</time>
      </trkpt>
      <trkpt lat="46.96518" lon="-0.92136">
        <ele>102.71496582031</ele>
        <time>2021-04-26T12:47:05Z</time>
      </trkpt>
      <trkpt lat="46.96527" lon="-0.92137">
        <ele>101.09368896484</ele>
        <time>2021-04-26T12:47:16Z</time>
      </trkpt>
      <trkpt lat="46.96534" lon="-0.92145">
        <ele>100.14208984375</ele>
        <time>2021-04-26T12:47:22Z</time>
      </trkpt>
      <trkpt lat="46.96539" lon="-0.92155">
        <ele>96.041931152344</ele>
        <time>2021-04-26T12:47:29Z</time>
      </trkpt>
      <trkpt lat="46.96542" lon="-0.92168">
        <ele>94.675842285156</ele>
        <time>2021-04-26T12:47:36Z</time>
      </trkpt>
      <trkpt lat="46.96546" lon="-0.92178">
        <ele>95.198120117188</ele>
        <time>2021-04-26T12:47:45Z</time>
      </trkpt>
      <trkpt lat="46.9655" lon="-0.92188">
        <ele>96.921264648438</ele>
        <time>2021-04-26T12:47:51Z</time>
      </trkpt>
      <trkpt lat="46.9655" lon="-0.922">
        <ele>99.68994140625</ele>
        <time>2021-04-26T12:47:58Z</time>
      </trkpt>
      <trkpt lat="46.96546" lon="-0.9221">
        <ele>102.01293945312</ele>
        <time>2021-04-26T12:48:03Z</time>
      </trkpt>
      <trkpt lat="46.9654" lon="-0.92219">
        <ele>101.65826416016</ele>
        <time>2021-04-26T12:48:09Z</time>
      </trkpt>
      <trkpt lat="46.96534" lon="-0.92225">
        <ele>102.95611572266</ele>
        <time>2021-04-26T12:48:16Z</time>
      </trkpt>
      <trkpt lat="46.96527" lon="-0.92231">
        <ele>104.47143554688</ele>
        <time>2021-04-26T12:48:23Z</time>
      </trkpt>
      <trkpt lat="46.9652" lon="-0.92239">
        <ele>102.78668212891</ele>
        <time>2021-04-26T12:48:30Z</time>
      </trkpt>
      <trkpt lat="46.96512" lon="-0.92245">
        <ele>101.55407714844</ele>
        <time>2021-04-26T12:48:37Z</time>
      </trkpt>
      <trkpt lat="46.96506" lon="-0.92252">
        <ele>101.35266113281</ele>
        <time>2021-04-26T12:48:45Z</time>
      </trkpt>
      <trkpt lat="46.96499" lon="-0.92259">
        <ele>100.7451171875</ele>
        <time>2021-04-26T12:48:53Z</time>
      </trkpt>
      <trkpt lat="46.96492" lon="-0.92266">
        <ele>100.10632324219</ele>
        <time>2021-04-26T12:49:00Z</time>
      </trkpt>
      <trkpt lat="46.96486" lon="-0.92274">
        <ele>98.657653808594</ele>
        <time>2021-04-26T12:49:07Z</time>
      </trkpt>
      <trkpt lat="46.96479" lon="-0.92281">
        <ele>96.979858398438</ele>
        <time>2021-04-26T12:49:14Z</time>
      </trkpt>
      <trkpt lat="46.96471" lon="-0.92286">
        <ele>98.039916992188</ele>
        <time>2021-04-26T12:49:21Z</time>
      </trkpt>
      <trkpt lat="46.96465" lon="-0.92293">
        <ele>98.690063476562</ele>
        <time>2021-04-26T12:49:28Z</time>
      </trkpt>
      <trkpt lat="46.96459" lon="-0.92302">
        <ele>99.794921875</ele>
        <time>2021-04-26T12:49:36Z</time>
      </trkpt>
      <trkpt lat="46.96454" lon="-0.92313">
        <ele>99.310302734375</ele>
        <time>2021-04-26T12:49:44Z</time>
      </trkpt>
      <trkpt lat="46.96449" lon="-0.92323">
        <ele>99.580810546875</ele>
        <time>2021-04-26T12:49:52Z</time>
      </trkpt>
      <trkpt lat="46.96444" lon="-0.92333">
        <ele>102.17449951172</ele>
        <time>2021-04-26T12:49:59Z</time>
      </trkpt>
      <trkpt lat="46.9644" lon="-0.92344">
        <ele>105.62872314453</ele>
        <time>2021-04-26T12:50:07Z</time>
      </trkpt>
      <trkpt lat="46.96436" lon="-0.92354">
        <ele>102.68328857422</ele>
        <time>2021-04-26T12:50:14Z</time>
      </trkpt>
      <trkpt lat="46.96433" lon="-0.92365">
        <ele>104.30700683594</ele>
        <time>2021-04-26T12:50:21Z</time>
      </trkpt>
      <trkpt lat="46.9643" lon="-0.92377">
        <ele>103.47344970703</ele>
        <time>2021-04-26T12:50:29Z</time>
      </trkpt>
      <trkpt lat="46.96428" lon="-0.92389">
        <ele>101.37249755859</ele>
        <time>2021-04-26T12:50:36Z</time>
      </trkpt>
      <trkpt lat="46.9643" lon="-0.92401">
        <ele>104.01550292969</ele>
        <time>2021-04-26T12:50:44Z</time>
      </trkpt>
      <trkpt lat="46.96435" lon="-0.92411">
        <ele>104.53704833984</ele>
        <time>2021-04-26T12:50:52Z</time>
      </trkpt>
      <trkpt lat="46.96438" lon="-0.92422">
        <ele>106.99401855469</ele>
        <time>2021-04-26T12:50:58Z</time>
      </trkpt>
      <trkpt lat="46.96441" lon="-0.92433">
        <ele>106.88861083984</ele>
        <time>2021-04-26T12:51:05Z</time>
      </trkpt>
      <trkpt lat="46.96445" lon="-0.92444">
        <ele>109.82244873047</ele>
        <time>2021-04-26T12:51:11Z</time>
      </trkpt>
      <trkpt lat="46.96449" lon="-0.92455">
        <ele>114.1650390625</ele>
        <time>2021-04-26T12:51:19Z</time>
      </trkpt>
      <trkpt lat="46.96452" lon="-0.92466">
        <ele>112.28173828125</ele>
        <time>2021-04-26T12:51:26Z</time>
      </trkpt>
      <trkpt lat="46.96453" lon="-0.92478">
        <ele>111.07244873047</ele>
        <time>2021-04-26T12:51:35Z</time>
      </trkpt>
      <trkpt lat="46.96453" lon="-0.92489">
        <ele>108.14660644531</ele>
        <time>2021-04-26T12:51:41Z</time>
      </trkpt>
      <trkpt lat="46.96458" lon="-0.92499">
        <ele>109.80688476562</ele>
        <time>2021-04-26T12:51:48Z</time>
      </trkpt>
      <trkpt lat="46.96462" lon="-0.9251">
        <ele>113.73486328125</ele>
        <time>2021-04-26T12:51:57Z</time>
      </trkpt>
      <trkpt lat="46.96468" lon="-0.92518">
        <ele>115.37878417969</ele>
        <time>2021-04-26T12:52:04Z</time>
      </trkpt>
      <trkpt lat="46.96474" lon="-0.92528">
        <ele>108.26403808594</ele>
        <time>2021-04-26T12:52:10Z</time>
      </trkpt>
      <trkpt lat="46.96481" lon="-0.92536">
        <ele>101.04284667969</ele>
        <time>2021-04-26T12:52:19Z</time>
      </trkpt>
      <trkpt lat="46.96485" lon="-0.92546">
        <ele>104.39025878906</ele>
        <time>2021-04-26T12:52:26Z</time>
      </trkpt>
      <trkpt lat="46.96492" lon="-0.92553">
        <ele>105.10980224609</ele>
        <time>2021-04-26T12:52:33Z</time>
      </trkpt>
      <trkpt lat="46.96498" lon="-0.92563">
        <ele>103.69549560547</ele>
        <time>2021-04-26T12:52:42Z</time>
      </trkpt>
      <trkpt lat="46.96501" lon="-0.92575">
        <ele>103.55139160156</ele>
        <time>2021-04-26T12:52:49Z</time>
      </trkpt>
      <trkpt lat="46.96501" lon="-0.92587">
        <ele>102.62878417969</ele>
        <time>2021-04-26T12:52:56Z</time>
      </trkpt>
      <trkpt lat="46.96494" lon="-0.92594">
        <ele>103.26684570312</ele>
        <time>2021-04-26T12:53:05Z</time>
      </trkpt>
      <trkpt lat="46.96485" lon="-0.92597">
        <ele>102.81469726562</ele>
        <time>2021-04-26T12:53:14Z</time>
      </trkpt>
      <trkpt lat="46.96478" lon="-0.926">
        <ele>103.40991210938</ele>
        <time>2021-04-26T12:53:21Z</time>
      </trkpt>
      <trkpt lat="46.9647" lon="-0.92604">
        <ele>102.35357666016</ele>
        <time>2021-04-26T12:53:28Z</time>
      </trkpt>
      <trkpt lat="46.96462" lon="-0.92609">
        <ele>106.7021484375</ele>
        <time>2021-04-26T12:53:37Z</time>
      </trkpt>
      <trkpt lat="46.96453" lon="-0.92614">
        <ele>102.87847900391</ele>
        <time>2021-04-26T12:53:47Z</time>
      </trkpt>
      <trkpt lat="46.96446" lon="-0.92618">
        <ele>107.99468994141</ele>
        <time>2021-04-26T12:53:56Z</time>
      </trkpt>
      <trkpt lat="46.96439" lon="-0.92624">
        <ele>109.92669677734</ele>
        <time>2021-04-26T12:54:04Z</time>
      </trkpt>
      <trkpt lat="46.96431" lon="-0.9263">
        <ele>113.11218261719</ele>
        <time>2021-04-26T12:54:15Z</time>
      </trkpt>
      <trkpt lat="46.96423" lon="-0.92636">
        <ele>115.48974609375</ele>
        <time>2021-04-26T12:54:24Z</time>
      </trkpt>
      <trkpt lat="46.96416" lon="-0.92642">
        <ele>115.78576660156</ele>
        <time>2021-04-26T12:54:30Z</time>
      </trkpt>
      <trkpt lat="46.96409" lon="-0.92647">
        <ele>112.87823486328</ele>
        <time>2021-04-26T12:54:37Z</time>
      </trkpt>
      <trkpt lat="46.96402" lon="-0.92655">
        <ele>116.47583007812</ele>
        <time>2021-04-26T12:54:49Z</time>
      </trkpt>
      <trkpt lat="46.96404" lon="-0.92666">
        <ele>117.35278320312</ele>
        <time>2021-04-26T12:54:59Z</time>
      </trkpt>
      <trkpt lat="46.96409" lon="-0.92677">
        <ele>113.98590087891</ele>
        <time>2021-04-26T12:55:07Z</time>
      </trkpt>
      <trkpt lat="46.96417" lon="-0.92682">
        <ele>113.310546875</ele>
        <time>2021-04-26T12:55:15Z</time>
      </trkpt>
      <trkpt lat="46.96425" lon="-0.92685">
        <ele>109.68572998047</ele>
        <time>2021-04-26T12:55:26Z</time>
      </trkpt>
      <trkpt lat="46.96433" lon="-0.92689">
        <ele>111.53131103516</ele>
        <time>2021-04-26T12:55:32Z</time>
      </trkpt>
      <trkpt lat="46.96442" lon="-0.9269">
        <ele>109.7294921875</ele>
        <time>2021-04-26T12:55:39Z</time>
      </trkpt>
      <trkpt lat="46.9645" lon="-0.92689">
        <ele>106.0478515625</ele>
        <time>2021-04-26T12:55:47Z</time>
      </trkpt>
      <trkpt lat="46.96457" lon="-0.92693">
        <ele>105.75872802734</ele>
        <time>2021-04-26T12:55:54Z</time>
      </trkpt>
      <trkpt lat="46.96466" lon="-0.92691">
        <ele>105.83422851562</ele>
        <time>2021-04-26T12:56:01Z</time>
      </trkpt>
      <trkpt lat="46.96474" lon="-0.92691">
        <ele>106.18823242188</ele>
        <time>2021-04-26T12:56:09Z</time>
      </trkpt>
      <trkpt lat="46.96482" lon="-0.92689">
        <ele>109.12896728516</ele>
        <time>2021-04-26T12:56:16Z</time>
      </trkpt>
      <trkpt lat="46.96491" lon="-0.92686">
        <ele>107.4697265625</ele>
        <time>2021-04-26T12:56:22Z</time>
      </trkpt>
      <trkpt lat="46.96499" lon="-0.92687">
        <ele>107.10687255859</ele>
        <time>2021-04-26T12:56:30Z</time>
      </trkpt>
      <trkpt lat="46.96508" lon="-0.92689">
        <ele>108.822265625</ele>
        <time>2021-04-26T12:56:37Z</time>
      </trkpt>
      <trkpt lat="46.96515" lon="-0.92695">
        <ele>106.62139892578</ele>
        <time>2021-04-26T12:56:45Z</time>
      </trkpt>
      <trkpt lat="46.96522" lon="-0.92703">
        <ele>107.64886474609</ele>
        <time>2021-04-26T12:57:04Z</time>
      </trkpt>
      <trkpt lat="46.96528" lon="-0.92712">
        <ele>105.98474121094</ele>
        <time>2021-04-26T12:57:10Z</time>
      </trkpt>
      <trkpt lat="46.96531" lon="-0.92724">
        <ele>108.21826171875</ele>
        <time>2021-04-26T12:57:17Z</time>
      </trkpt>
      <trkpt lat="46.96539" lon="-0.92729">
        <ele>110.79620361328</ele>
        <time>2021-04-26T12:57:24Z</time>
      </trkpt>
      <trkpt lat="46.96544" lon="-0.92738">
        <ele>109.23229980469</ele>
        <time>2021-04-26T12:57:32Z</time>
      </trkpt>
      <trkpt lat="46.96551" lon="-0.92747">
        <ele>108.67718505859</ele>
        <time>2021-04-26T12:57:40Z</time>
      </trkpt>
      <trkpt lat="46.96558" lon="-0.92755">
        <ele>107.74816894531</ele>
        <time>2021-04-26T12:57:47Z</time>
      </trkpt>
      <trkpt lat="46.96563" lon="-0.92763">
        <ele>106.11389160156</ele>
        <time>2021-04-26T12:57:54Z</time>
      </trkpt>
      <trkpt lat="46.96569" lon="-0.92774">
        <ele>105.85070800781</ele>
        <time>2021-04-26T12:58:02Z</time>
      </trkpt>
      <trkpt lat="46.96576" lon="-0.92779">
        <ele>103.78662109375</ele>
        <time>2021-04-26T12:58:11Z</time>
      </trkpt>
      <trkpt lat="46.96584" lon="-0.92784">
        <ele>102.98590087891</ele>
        <time>2021-04-26T12:58:17Z</time>
      </trkpt>
      <trkpt lat="46.96589" lon="-0.92795">
        <ele>98.330383300781</ele>
        <time>2021-04-26T12:58:25Z</time>
      </trkpt>
      <trkpt lat="46.96595" lon="-0.92804">
        <ele>98.106750488281</ele>
        <time>2021-04-26T12:58:33Z</time>
      </trkpt>
      <trkpt lat="46.96595" lon="-0.92817">
        <ele>97.026000976562</ele>
        <time>2021-04-26T12:58:40Z</time>
      </trkpt>
      <trkpt lat="46.96592" lon="-0.92829">
        <ele>98.339599609375</ele>
        <time>2021-04-26T12:58:49Z</time>
      </trkpt>
      <trkpt lat="46.96589" lon="-0.92841">
        <ele>101.90570068359</ele>
        <time>2021-04-26T12:58:57Z</time>
      </trkpt>
      <trkpt lat="46.96586" lon="-0.92852">
        <ele>101.43798828125</ele>
        <time>2021-04-26T12:59:05Z</time>
      </trkpt>
      <trkpt lat="46.96583" lon="-0.92863">
        <ele>106.42639160156</ele>
        <time>2021-04-26T12:59:14Z</time>
      </trkpt>
      <trkpt lat="46.96578" lon="-0.92874">
        <ele>104.04418945312</ele>
        <time>2021-04-26T12:59:22Z</time>
      </trkpt>
      <trkpt lat="46.96573" lon="-0.92885">
        <ele>104.89880371094</ele>
        <time>2021-04-26T12:59:29Z</time>
      </trkpt>
      <trkpt lat="46.96569" lon="-0.92895">
        <ele>109.37866210938</ele>
        <time>2021-04-26T12:59:36Z</time>
      </trkpt>
      <trkpt lat="46.96574" lon="-0.92905">
        <ele>109.16973876953</ele>
        <time>2021-04-26T12:59:44Z</time>
      </trkpt>
      <trkpt lat="46.96582" lon="-0.92906">
        <ele>106.84716796875</ele>
        <time>2021-04-26T12:59:52Z</time>
      </trkpt>
      <trkpt lat="46.9659" lon="-0.92902">
        <ele>104.15460205078</ele>
        <time>2021-04-26T12:59:58Z</time>
      </trkpt>
      <trkpt lat="46.96599" lon="-0.92905">
        <ele>100.98431396484</ele>
        <time>2021-04-26T13:02:49Z</time>
      </trkpt>
      <trkpt lat="46.96608" lon="-0.92903">
        <ele>98.803588867188</ele>
        <time>2021-04-26T13:02:59Z</time>
      </trkpt>
      <trkpt lat="46.96616" lon="-0.92902">
        <ele>101.57495117188</ele>
        <time>2021-04-26T13:03:06Z</time>
      </trkpt>
      <trkpt lat="46.96624" lon="-0.92908">
        <ele>99.066162109375</ele>
        <time>2021-04-26T13:03:14Z</time>
      </trkpt>
      <trkpt lat="46.9663" lon="-0.92917">
        <ele>97.960510253906</ele>
        <time>2021-04-26T13:03:21Z</time>
      </trkpt>
      <trkpt lat="46.96637" lon="-0.92924">
        <ele>96.068908691406</ele>
        <time>2021-04-26T13:03:30Z</time>
      </trkpt>
      <trkpt lat="46.96642" lon="-0.92933">
        <ele>96.273681640625</ele>
        <time>2021-04-26T13:03:36Z</time>
      </trkpt>
      <trkpt lat="46.96648" lon="-0.92941">
        <ele>96.126831054688</ele>
        <time>2021-04-26T13:03:42Z</time>
      </trkpt>
      <trkpt lat="46.96652" lon="-0.92953">
        <ele>99.051574707031</ele>
        <time>2021-04-26T13:03:51Z</time>
      </trkpt>
      <trkpt lat="46.96657" lon="-0.92962">
        <ele>100.0693359375</ele>
        <time>2021-04-26T13:03:58Z</time>
      </trkpt>
      <trkpt lat="46.96664" lon="-0.92968">
        <ele>99.289428710938</ele>
        <time>2021-04-26T13:04:04Z</time>
      </trkpt>
      <trkpt lat="46.96671" lon="-0.92974">
        <ele>98.564880371094</ele>
        <time>2021-04-26T13:04:10Z</time>
      </trkpt>
      <trkpt lat="46.96677" lon="-0.92983">
        <ele>98.255798339844</ele>
        <time>2021-04-26T13:04:17Z</time>
      </trkpt>
      <trkpt lat="46.96685" lon="-0.92983">
        <ele>95.2626953125</ele>
        <time>2021-04-26T13:04:24Z</time>
      </trkpt>
      <trkpt lat="46.96694" lon="-0.92987">
        <ele>97.648864746094</ele>
        <time>2021-04-26T13:04:31Z</time>
      </trkpt>
      <trkpt lat="46.96702" lon="-0.92986">
        <ele>96.71533203125</ele>
        <time>2021-04-26T13:04:39Z</time>
      </trkpt>
      <trkpt lat="46.9671" lon="-0.92991">
        <ele>102.81842041016</ele>
        <time>2021-04-26T13:04:49Z</time>
      </trkpt>
      <trkpt lat="46.96719" lon="-0.92988">
        <ele>101.16693115234</ele>
        <time>2021-04-26T13:04:58Z</time>
      </trkpt>
      <trkpt lat="46.96727" lon="-0.92988">
        <ele>100.42321777344</ele>
        <time>2021-04-26T13:05:09Z</time>
      </trkpt>
      <trkpt lat="46.96735" lon="-0.92987">
        <ele>100.53125</ele>
        <time>2021-04-26T13:05:18Z</time>
      </trkpt>
      <trkpt lat="46.96741" lon="-0.92981">
        <ele>102.55285644531</ele>
        <time>2021-04-26T13:05:23Z</time>
      </trkpt>
      <trkpt lat="46.96747" lon="-0.92973">
        <ele>101.77813720703</ele>
        <time>2021-04-26T13:05:28Z</time>
      </trkpt>
      <trkpt lat="46.96752" lon="-0.92962">
        <ele>101.71252441406</ele>
        <time>2021-04-26T13:05:34Z</time>
      </trkpt>
      <trkpt lat="46.96756" lon="-0.92953">
        <ele>100.95782470703</ele>
        <time>2021-04-26T13:05:41Z</time>
      </trkpt>
      <trkpt lat="46.96762" lon="-0.92944">
        <ele>102.42858886719</ele>
        <time>2021-04-26T13:05:46Z</time>
      </trkpt>
      <trkpt lat="46.96765" lon="-0.92933">
        <ele>103.04736328125</ele>
        <time>2021-04-26T13:05:52Z</time>
      </trkpt>
      <trkpt lat="46.9677" lon="-0.92921">
        <ele>105.68475341797</ele>
        <time>2021-04-26T13:05:59Z</time>
      </trkpt>
      <trkpt lat="46.96774" lon="-0.92912">
        <ele>105.03063964844</ele>
        <time>2021-04-26T13:06:05Z</time>
      </trkpt>
      <trkpt lat="46.96777" lon="-0.929">
        <ele>103.63995361328</ele>
        <time>2021-04-26T13:06:14Z</time>
      </trkpt>
      <trkpt lat="46.96779" lon="-0.92887">
        <ele>102.41284179688</ele>
        <time>2021-04-26T13:06:22Z</time>
      </trkpt>
      <trkpt lat="46.96785" lon="-0.92878">
        <ele>102.31896972656</ele>
        <time>2021-04-26T13:06:30Z</time>
      </trkpt>
      <trkpt lat="46.96791" lon="-0.9287">
        <ele>102.11657714844</ele>
        <time>2021-04-26T13:06:37Z</time>
      </trkpt>
      <trkpt lat="46.96798" lon="-0.92862">
        <ele>100.22290039062</ele>
        <time>2021-04-26T13:06:46Z</time>
      </trkpt>
      <trkpt lat="46.96804" lon="-0.92854">
        <ele>100.40319824219</ele>
        <time>2021-04-26T13:06:53Z</time>
      </trkpt>
      <trkpt lat="46.96812" lon="-0.92848">
        <ele>101.70489501953</ele>
        <time>2021-04-26T13:07:02Z</time>
      </trkpt>
      <trkpt lat="46.9682" lon="-0.92845">
        <ele>102.53747558594</ele>
        <time>2021-04-26T13:07:18Z</time>
      </trkpt>
      <trkpt lat="46.96825" lon="-0.92836">
        <ele>98.257751464844</ele>
        <time>2021-04-26T13:07:51Z</time>
      </trkpt>
      <trkpt lat="46.96833" lon="-0.92831">
        <ele>102.67224121094</ele>
        <time>2021-04-26T13:07:56Z</time>
      </trkpt>
      <trkpt lat="46.9684" lon="-0.92828">
        <ele>106.37799072266</ele>
        <time>2021-04-26T13:08:01Z</time>
      </trkpt>
      <trkpt lat="46.96849" lon="-0.92829">
        <ele>105.61535644531</ele>
        <time>2021-04-26T13:08:06Z</time>
      </trkpt>
      <trkpt lat="46.96857" lon="-0.92835">
        <ele>105.18896484375</ele>
        <time>2021-04-26T13:08:12Z</time>
      </trkpt>
      <trkpt lat="46.96863" lon="-0.92843">
        <ele>106.34936523438</ele>
        <time>2021-04-26T13:08:20Z</time>
      </trkpt>
      <trkpt lat="46.9687" lon="-0.9285">
        <ele>106.59356689453</ele>
        <time>2021-04-26T13:08:27Z</time>
      </trkpt>
      <trkpt lat="46.96874" lon="-0.92861">
        <ele>111.31048583984</ele>
        <time>2021-04-26T13:08:34Z</time>
      </trkpt>
      <trkpt lat="46.96878" lon="-0.92871">
        <ele>113.27301025391</ele>
        <time>2021-04-26T13:08:41Z</time>
      </trkpt>
      <trkpt lat="46.96885" lon="-0.9288">
        <ele>115.64611816406</ele>
        <time>2021-04-26T13:08:50Z</time>
      </trkpt>
      <trkpt lat="46.96891" lon="-0.92889">
        <ele>119.36462402344</ele>
        <time>2021-04-26T13:08:58Z</time>
      </trkpt>
      <trkpt lat="46.96899" lon="-0.92892">
        <ele>118.5693359375</ele>
        <time>2021-04-26T13:09:06Z</time>
      </trkpt>
      <trkpt lat="46.96907" lon="-0.92898">
        <ele>118.03942871094</ele>
        <time>2021-04-26T13:09:15Z</time>
      </trkpt>
      <trkpt lat="46.96913" lon="-0.92906">
        <ele>115.62817382812</ele>
        <time>2021-04-26T13:09:24Z</time>
      </trkpt>
      <trkpt lat="46.96921" lon="-0.92913">
        <ele>115.08685302734</ele>
        <time>2021-04-26T13:09:34Z</time>
      </trkpt>
      <trkpt lat="46.96927" lon="-0.92919">
        <ele>116.20635986328</ele>
        <time>2021-04-26T13:09:40Z</time>
      </trkpt>
      <trkpt lat="46.96932" lon="-0.92929">
        <ele>117.00793457031</ele>
        <time>2021-04-26T13:09:47Z</time>
      </trkpt>
      <trkpt lat="46.96936" lon="-0.9294">
        <ele>119.41961669922</ele>
        <time>2021-04-26T13:09:54Z</time>
      </trkpt>
      <trkpt lat="46.96944" lon="-0.92946">
        <ele>123.16619873047</ele>
        <time>2021-04-26T13:10:03Z</time>
      </trkpt>
      <trkpt lat="46.96948" lon="-0.92957">
        <ele>123.36303710938</ele>
        <time>2021-04-26T13:10:11Z</time>
      </trkpt>
      <trkpt lat="46.96954" lon="-0.92966">
        <ele>124.2900390625</ele>
        <time>2021-04-26T13:10:20Z</time>
      </trkpt>
      <trkpt lat="46.96959" lon="-0.92975">
        <ele>122.55480957031</ele>
        <time>2021-04-26T13:10:28Z</time>
      </trkpt>
      <trkpt lat="46.96967" lon="-0.92978">
        <ele>124.3857421875</ele>
        <time>2021-04-26T13:10:38Z</time>
      </trkpt>
      <trkpt lat="46.96976" lon="-0.92977">
        <ele>123.06506347656</ele>
        <time>2021-04-26T13:10:48Z</time>
      </trkpt>
      <trkpt lat="46.96984" lon="-0.92979">
        <ele>123.77642822266</ele>
        <time>2021-04-26T13:10:55Z</time>
      </trkpt>
      <trkpt lat="46.96991" lon="-0.92978">
        <ele>124.52905273438</ele>
        <time>2021-04-26T13:11:01Z</time>
      </trkpt>
      <trkpt lat="46.96999" lon="-0.92975">
        <ele>122.98376464844</ele>
        <time>2021-04-26T13:11:07Z</time>
      </trkpt>
      <trkpt lat="46.97007" lon="-0.92975">
        <ele>123.86004638672</ele>
        <time>2021-04-26T13:11:17Z</time>
      </trkpt>
      <trkpt lat="46.97016" lon="-0.92975">
        <ele>124.19256591797</ele>
        <time>2021-04-26T13:11:26Z</time>
      </trkpt>
      <trkpt lat="46.97023" lon="-0.92968">
        <ele>122.39819335938</ele>
        <time>2021-04-26T13:11:34Z</time>
      </trkpt>
      <trkpt lat="46.97031" lon="-0.92963">
        <ele>122.41143798828</ele>
        <time>2021-04-26T13:11:44Z</time>
      </trkpt>
      <trkpt lat="46.97036" lon="-0.92955">
        <ele>121.4951171875</ele>
        <time>2021-04-26T13:11:49Z</time>
      </trkpt>
      <trkpt lat="46.97043" lon="-0.92949">
        <ele>122.66668701172</ele>
        <time>2021-04-26T13:11:58Z</time>
      </trkpt>
      <trkpt lat="46.97046" lon="-0.92938">
        <ele>122.58056640625</ele>
        <time>2021-04-26T13:12:06Z</time>
      </trkpt>
      <trkpt lat="46.97052" lon="-0.92929">
        <ele>124.82287597656</ele>
        <time>2021-04-26T13:12:14Z</time>
      </trkpt>
      <trkpt lat="46.97058" lon="-0.92921">
        <ele>123.53637695312</ele>
        <time>2021-04-26T13:12:23Z</time>
      </trkpt>
      <trkpt lat="46.97062" lon="-0.9291">
        <ele>125.39880371094</ele>
        <time>2021-04-26T13:12:31Z</time>
      </trkpt>
      <trkpt lat="46.97066" lon="-0.92899">
        <ele>126.55389404297</ele>
        <time>2021-04-26T13:12:39Z</time>
      </trkpt>
      <trkpt lat="46.9707" lon="-0.92888">
        <ele>129.04663085938</ele>
        <time>2021-04-26T13:12:47Z</time>
      </trkpt>
      <trkpt lat="46.97076" lon="-0.92879">
        <ele>129.2216796875</ele>
        <time>2021-04-26T13:12:54Z</time>
      </trkpt>
      <trkpt lat="46.97082" lon="-0.92871">
        <ele>129.31555175781</ele>
        <time>2021-04-26T13:13:01Z</time>
      </trkpt>
      <trkpt lat="46.97086" lon="-0.92861">
        <ele>130.84173583984</ele>
        <time>2021-04-26T13:13:09Z</time>
      </trkpt>
      <trkpt lat="46.97091" lon="-0.92852">
        <ele>131.62115478516</ele>
        <time>2021-04-26T13:13:15Z</time>
      </trkpt>
      <trkpt lat="46.97098" lon="-0.92846">
        <ele>128.54058837891</ele>
        <time>2021-04-26T13:13:23Z</time>
      </trkpt>
      <trkpt lat="46.97105" lon="-0.92837">
        <ele>131.96179199219</ele>
        <time>2021-04-26T13:13:31Z</time>
      </trkpt>
      <trkpt lat="46.9711" lon="-0.92829">
        <ele>129.349609375</ele>
        <time>2021-04-26T13:13:40Z</time>
      </trkpt>
      <trkpt lat="46.97117" lon="-0.92821">
        <ele>128.63067626953</ele>
        <time>2021-04-26T13:13:47Z</time>
      </trkpt>
      <trkpt lat="46.97122" lon="-0.92812">
        <ele>127.90362548828</ele>
        <time>2021-04-26T13:13:55Z</time>
      </trkpt>
      <trkpt lat="46.97129" lon="-0.92806">
        <ele>127.70666503906</ele>
        <time>2021-04-26T13:14:03Z</time>
      </trkpt>
      <trkpt lat="46.97137" lon="-0.92799">
        <ele>127.67309570312</ele>
        <time>2021-04-26T13:14:12Z</time>
      </trkpt>
      <trkpt lat="46.97143" lon="-0.92791">
        <ele>128.8583984375</ele>
        <time>2021-04-26T13:14:20Z</time>
      </trkpt>
      <trkpt lat="46.97149" lon="-0.92784">
        <ele>130.43432617188</ele>
        <time>2021-04-26T13:14:27Z</time>
      </trkpt>
      <trkpt lat="46.97155" lon="-0.92775">
        <ele>130.39770507812</ele>
        <time>2021-04-26T13:14:34Z</time>
      </trkpt>
      <trkpt lat="46.97159" lon="-0.92765">
        <ele>129.69641113281</ele>
        <time>2021-04-26T13:14:41Z</time>
      </trkpt>
      <trkpt lat="46.97163" lon="-0.92754">
        <ele>129.10162353516</ele>
        <time>2021-04-26T13:14:49Z</time>
      </trkpt>
      <trkpt lat="46.97167" lon="-0.92744">
        <ele>133.04858398438</ele>
        <time>2021-04-26T13:14:57Z</time>
      </trkpt>
      <trkpt lat="46.97171" lon="-0.92733">
        <ele>133.15502929688</ele>
        <time>2021-04-26T13:15:06Z</time>
      </trkpt>
      <trkpt lat="46.97176" lon="-0.92722">
        <ele>135.69543457031</ele>
        <time>2021-04-26T13:15:14Z</time>
      </trkpt>
      <trkpt lat="46.97179" lon="-0.9271">
        <ele>134.15435791016</ele>
        <time>2021-04-26T13:15:22Z</time>
      </trkpt>
      <trkpt lat="46.97184" lon="-0.927">
        <ele>135.42077636719</ele>
        <time>2021-04-26T13:15:30Z</time>
      </trkpt>
      <trkpt lat="46.97188" lon="-0.92692">
        <ele>137.67504882812</ele>
        <time>2021-04-26T13:15:36Z</time>
      </trkpt>
      <trkpt lat="46.97193" lon="-0.92681">
        <ele>139.146484375</ele>
        <time>2021-04-26T13:15:42Z</time>
      </trkpt>
      <trkpt lat="46.97194" lon="-0.92669">
        <ele>137.25671386719</ele>
        <time>2021-04-26T13:15:51Z</time>
      </trkpt>
      <trkpt lat="46.97198" lon="-0.92659">
        <ele>139.05950927734</ele>
        <time>2021-04-26T13:15:58Z</time>
      </trkpt>
      <trkpt lat="46.97203" lon="-0.92649">
        <ele>138.39562988281</ele>
        <time>2021-04-26T13:16:06Z</time>
      </trkpt>
      <trkpt lat="46.9721" lon="-0.92642">
        <ele>139.60601806641</ele>
        <time>2021-04-26T13:16:13Z</time>
      </trkpt>
      <trkpt lat="46.97218" lon="-0.92638">
        <ele>139.62353515625</ele>
        <time>2021-04-26T13:16:20Z</time>
      </trkpt>
      <trkpt lat="46.97226" lon="-0.92636">
        <ele>137.67724609375</ele>
        <time>2021-04-26T13:16:28Z</time>
      </trkpt>
      <trkpt lat="46.97234" lon="-0.92635">
        <ele>136.21215820312</ele>
        <time>2021-04-26T13:16:36Z</time>
      </trkpt>
      <trkpt lat="46.97243" lon="-0.92631">
        <ele>137.09680175781</ele>
        <time>2021-04-26T13:16:44Z</time>
      </trkpt>
      <trkpt lat="46.97251" lon="-0.92628">
        <ele>138.36694335938</ele>
        <time>2021-04-26T13:16:52Z</time>
      </trkpt>
      <trkpt lat="46.9726" lon="-0.92625">
        <ele>136.13702392578</ele>
        <time>2021-04-26T13:18:19Z</time>
      </trkpt>
      <trkpt lat="46.97267" lon="-0.92621">
        <ele>134.94494628906</ele>
        <time>2021-04-26T13:18:26Z</time>
      </trkpt>
      <trkpt lat="46.97275" lon="-0.92614">
        <ele>132.4296875</ele>
        <time>2021-04-26T13:18:34Z</time>
      </trkpt>
      <trkpt lat="46.97282" lon="-0.92609">
        <ele>133.82446289062</ele>
        <time>2021-04-26T13:18:40Z</time>
      </trkpt>
      <trkpt lat="46.97287" lon="-0.926">
        <ele>136.34289550781</ele>
        <time>2021-04-26T13:18:46Z</time>
      </trkpt>
      <trkpt lat="46.97287" lon="-0.92589">
        <ele>137.64221191406</ele>
        <time>2021-04-26T13:18:55Z</time>
      </trkpt>
      <trkpt lat="46.97285" lon="-0.92577">
        <ele>139.8623046875</ele>
        <time>2021-04-26T13:19:01Z</time>
      </trkpt>
      <trkpt lat="46.97283" lon="-0.92566">
        <ele>139.36315917969</ele>
        <time>2021-04-26T13:19:08Z</time>
      </trkpt>
      <trkpt lat="46.97282" lon="-0.92555">
        <ele>138.76818847656</ele>
        <time>2021-04-26T13:19:14Z</time>
      </trkpt>
      <trkpt lat="46.97282" lon="-0.92542">
        <ele>139.60620117188</ele>
        <time>2021-04-26T13:19:21Z</time>
      </trkpt>
      <trkpt lat="46.97284" lon="-0.9253">
        <ele>140.18395996094</ele>
        <time>2021-04-26T13:19:28Z</time>
      </trkpt>
      <trkpt lat="46.97286" lon="-0.92518">
        <ele>139.35546875</ele>
        <time>2021-04-26T13:19:35Z</time>
      </trkpt>
      <trkpt lat="46.97288" lon="-0.92507">
        <ele>139.50299072266</ele>
        <time>2021-04-26T13:19:42Z</time>
      </trkpt>
      <trkpt lat="46.9729" lon="-0.92495">
        <ele>140.82678222656</ele>
        <time>2021-04-26T13:19:49Z</time>
      </trkpt>
      <trkpt lat="46.97293" lon="-0.92483">
        <ele>144.25762939453</ele>
        <time>2021-04-26T13:19:56Z</time>
      </trkpt>
      <trkpt lat="46.97294" lon="-0.9247">
        <ele>145.70141601562</ele>
        <time>2021-04-26T13:20:04Z</time>
      </trkpt>
      <trkpt lat="46.97296" lon="-0.92458">
        <ele>147.16912841797</ele>
        <time>2021-04-26T13:20:11Z</time>
      </trkpt>
      <trkpt lat="46.97296" lon="-0.92445">
        <ele>147.88458251953</ele>
        <time>2021-04-26T13:20:18Z</time>
      </trkpt>
      <trkpt lat="46.97297" lon="-0.92433">
        <ele>148.4306640625</ele>
        <time>2021-04-26T13:20:25Z</time>
      </trkpt>
      <trkpt lat="46.97297" lon="-0.92421">
        <ele>144.92663574219</ele>
        <time>2021-04-26T13:20:33Z</time>
      </trkpt>
      <trkpt lat="46.97297" lon="-0.92409">
        <ele>142.66253662109</ele>
        <time>2021-04-26T13:20:40Z</time>
      </trkpt>
      <trkpt lat="46.97301" lon="-0.92399">
        <ele>143.38555908203</ele>
        <time>2021-04-26T13:20:47Z</time>
      </trkpt>
      <trkpt lat="46.97306" lon="-0.92388">
        <ele>140.40521240234</ele>
        <time>2021-04-26T13:20:55Z</time>
      </trkpt>
      <trkpt lat="46.97311" lon="-0.92378">
        <ele>141.19018554688</ele>
        <time>2021-04-26T13:21:02Z</time>
      </trkpt>
      <trkpt lat="46.97316" lon="-0.92368">
        <ele>141.73217773438</ele>
        <time>2021-04-26T13:21:09Z</time>
      </trkpt>
      <trkpt lat="46.97319" lon="-0.92356">
        <ele>143.04968261719</ele>
        <time>2021-04-26T13:21:16Z</time>
      </trkpt>
      <trkpt lat="46.9732" lon="-0.92345">
        <ele>144.59729003906</ele>
        <time>2021-04-26T13:21:23Z</time>
      </trkpt>
      <trkpt lat="46.97322" lon="-0.92333">
        <ele>144.4697265625</ele>
        <time>2021-04-26T13:21:31Z</time>
      </trkpt>
      <trkpt lat="46.97324" lon="-0.9232">
        <ele>145.02209472656</ele>
        <time>2021-04-26T13:21:39Z</time>
      </trkpt>
      <trkpt lat="46.97323" lon="-0.92308">
        <ele>144.51336669922</ele>
        <time>2021-04-26T13:21:46Z</time>
      </trkpt>
      <trkpt lat="46.97322" lon="-0.92296">
        <ele>143.8291015625</ele>
        <time>2021-04-26T13:21:54Z</time>
      </trkpt>
      <trkpt lat="46.97322" lon="-0.92283">
        <ele>144.35101318359</ele>
        <time>2021-04-26T13:22:02Z</time>
      </trkpt>
      <trkpt lat="46.97322" lon="-0.92272">
        <ele>144.59228515625</ele>
        <time>2021-04-26T13:22:09Z</time>
      </trkpt>
      <trkpt lat="46.97321" lon="-0.92259">
        <ele>145.31982421875</ele>
        <time>2021-04-26T13:22:16Z</time>
      </trkpt>
      <trkpt lat="46.97321" lon="-0.92247">
        <ele>145.98669433594</ele>
        <time>2021-04-26T13:22:23Z</time>
      </trkpt>
      <trkpt lat="46.9732" lon="-0.92235">
        <ele>147.39526367188</ele>
        <time>2021-04-26T13:22:32Z</time>
      </trkpt>
      <trkpt lat="46.97321" lon="-0.92223">
        <ele>146.95166015625</ele>
        <time>2021-04-26T13:22:39Z</time>
      </trkpt>
      <trkpt lat="46.97321" lon="-0.9221">
        <ele>145.14971923828</ele>
        <time>2021-04-26T13:22:46Z</time>
      </trkpt>
      <trkpt lat="46.97322" lon="-0.92198">
        <ele>146.43804931641</ele>
        <time>2021-04-26T13:22:53Z</time>
      </trkpt>
      <trkpt lat="46.97327" lon="-0.92188">
        <ele>150.73181152344</ele>
        <time>2021-04-26T13:22:59Z</time>
      </trkpt>
      <trkpt lat="46.97333" lon="-0.92178">
        <ele>150.39758300781</ele>
        <time>2021-04-26T13:23:07Z</time>
      </trkpt>
      <trkpt lat="46.97333" lon="-0.92165">
        <ele>151.55316162109</ele>
        <time>2021-04-26T13:23:15Z</time>
      </trkpt>
      <trkpt lat="46.97328" lon="-0.92157">
        <ele>146.40948486328</ele>
        <time>2021-04-26T13:23:22Z</time>
      </trkpt>
      <trkpt lat="46.9732" lon="-0.92152">
        <ele>145.28051757812</ele>
        <time>2021-04-26T13:23:27Z</time>
      </trkpt>
      <trkpt lat="46.97312" lon="-0.92148">
        <ele>144.91662597656</ele>
        <time>2021-04-26T13:23:33Z</time>
      </trkpt>
      <trkpt lat="46.97305" lon="-0.92144">
        <ele>145.47052001953</ele>
        <time>2021-04-26T13:23:39Z</time>
      </trkpt>
      <trkpt lat="46.97297" lon="-0.92139">
        <ele>144.75054931641</ele>
        <time>2021-04-26T13:23:46Z</time>
      </trkpt>
      <trkpt lat="46.9729" lon="-0.92135">
        <ele>144.60028076172</ele>
        <time>2021-04-26T13:23:52Z</time>
      </trkpt>
      <trkpt lat="46.97281" lon="-0.92131">
        <ele>143.41357421875</ele>
        <time>2021-04-26T13:23:59Z</time>
      </trkpt>
      <trkpt lat="46.97274" lon="-0.92129">
        <ele>143.57830810547</ele>
        <time>2021-04-26T13:24:06Z</time>
      </trkpt>
      <trkpt lat="46.97266" lon="-0.92125">
        <ele>143.16247558594</ele>
        <time>2021-04-26T13:24:13Z</time>
      </trkpt>
      <trkpt lat="46.97257" lon="-0.92122">
        <ele>142.06030273438</ele>
        <time>2021-04-26T13:24:22Z</time>
      </trkpt>
      <trkpt lat="46.97249" lon="-0.92119">
        <ele>140.62451171875</ele>
        <time>2021-04-26T13:24:36Z</time>
      </trkpt>
      <trkpt lat="46.97241" lon="-0.92114">
        <ele>139.25714111328</ele>
        <time>2021-04-26T13:24:44Z</time>
      </trkpt>
      <trkpt lat="46.97232" lon="-0.92111">
        <ele>140.89001464844</ele>
        <time>2021-04-26T13:24:51Z</time>
      </trkpt>
      <trkpt lat="46.97224" lon="-0.92107">
        <ele>141.43884277344</ele>
        <time>2021-04-26T13:24:58Z</time>
      </trkpt>
      <trkpt lat="46.97217" lon="-0.92104">
        <ele>139.80706787109</ele>
        <time>2021-04-26T13:25:04Z</time>
      </trkpt>
      <trkpt lat="46.9721" lon="-0.921">
        <ele>140.54583740234</ele>
        <time>2021-04-26T13:25:10Z</time>
      </trkpt>
      <trkpt lat="46.97201" lon="-0.92095">
        <ele>139.48468017578</ele>
        <time>2021-04-26T13:25:21Z</time>
      </trkpt>
      <trkpt lat="46.97193" lon="-0.92092">
        <ele>140.130859375</ele>
        <time>2021-04-26T13:25:27Z</time>
      </trkpt>
      <trkpt lat="46.97185" lon="-0.92087">
        <ele>140.10992431641</ele>
        <time>2021-04-26T13:25:32Z</time>
      </trkpt>
      <trkpt lat="46.97177" lon="-0.92082">
        <ele>139.45788574219</ele>
        <time>2021-04-26T13:25:38Z</time>
      </trkpt>
      <trkpt lat="46.97169" lon="-0.92079">
        <ele>136.82940673828</ele>
        <time>2021-04-26T13:25:48Z</time>
      </trkpt>
      <trkpt lat="46.97162" lon="-0.92075">
        <ele>138.51281738281</ele>
        <time>2021-04-26T13:25:53Z</time>
      </trkpt>
      <trkpt lat="46.97155" lon="-0.92072">
        <ele>139.9248046875</ele>
        <time>2021-04-26T13:25:59Z</time>
      </trkpt>
      <trkpt lat="46.97147" lon="-0.92067">
        <ele>139.18969726562</ele>
        <time>2021-04-26T13:26:05Z</time>
      </trkpt>
      <trkpt lat="46.97139" lon="-0.92064">
        <ele>139.15472412109</ele>
        <time>2021-04-26T13:26:13Z</time>
      </trkpt>
      <trkpt lat="46.97132" lon="-0.9206">
        <ele>138.71130371094</ele>
        <time>2021-04-26T13:26:20Z</time>
      </trkpt>
      <trkpt lat="46.97124" lon="-0.92054">
        <ele>139.32366943359</ele>
        <time>2021-04-26T13:26:28Z</time>
      </trkpt>
      <trkpt lat="46.97116" lon="-0.9205">
        <ele>139.01098632812</ele>
        <time>2021-04-26T13:26:38Z</time>
      </trkpt>
      <trkpt lat="46.97107" lon="-0.92047">
        <ele>137.69470214844</ele>
        <time>2021-04-26T13:26:48Z</time>
      </trkpt>
      <trkpt lat="46.97099" lon="-0.92042">
        <ele>140.43237304688</ele>
        <time>2021-04-26T13:26:53Z</time>
      </trkpt>
      <trkpt lat="46.97091" lon="-0.92036">
        <ele>141.49365234375</ele>
        <time>2021-04-26T13:26:58Z</time>
      </trkpt>
      <trkpt lat="46.97083" lon="-0.92034">
        <ele>139.68859863281</ele>
        <time>2021-04-26T13:27:08Z</time>
      </trkpt>
      <trkpt lat="46.97076" lon="-0.9203">
        <ele>141.07183837891</ele>
        <time>2021-04-26T13:27:13Z</time>
      </trkpt>
      <trkpt lat="46.97068" lon="-0.92024">
        <ele>142.60778808594</ele>
        <time>2021-04-26T13:27:19Z</time>
      </trkpt>
      <trkpt lat="46.97062" lon="-0.92018">
        <ele>137.23107910156</ele>
        <time>2021-04-26T13:27:27Z</time>
      </trkpt>
      <trkpt lat="46.97055" lon="-0.92012">
        <ele>137.125</ele>
        <time>2021-04-26T13:27:33Z</time>
      </trkpt>
      <trkpt lat="46.97048" lon="-0.92005">
        <ele>137.08782958984</ele>
        <time>2021-04-26T13:27:39Z</time>
      </trkpt>
      <trkpt lat="46.9704" lon="-0.92">
        <ele>138.28948974609</ele>
        <time>2021-04-26T13:27:45Z</time>
      </trkpt>
      <trkpt lat="46.97033" lon="-0.91994">
        <ele>138.67114257812</ele>
        <time>2021-04-26T13:27:51Z</time>
      </trkpt>
      <trkpt lat="46.97026" lon="-0.91988">
        <ele>136.74816894531</ele>
        <time>2021-04-26T13:28:00Z</time>
      </trkpt>
      <trkpt lat="46.97018" lon="-0.91983">
        <ele>137.41424560547</ele>
        <time>2021-04-26T13:28:11Z</time>
      </trkpt>
      <trkpt lat="46.97011" lon="-0.91975">
        <ele>137.05456542969</ele>
        <time>2021-04-26T13:28:17Z</time>
      </trkpt>
      <trkpt lat="46.97004" lon="-0.91969">
        <ele>138.66864013672</ele>
        <time>2021-04-26T13:28:22Z</time>
      </trkpt>
      <trkpt lat="46.96997" lon="-0.91962">
        <ele>137.12622070312</ele>
        <time>2021-04-26T13:28:31Z</time>
      </trkpt>
      <trkpt lat="46.96989" lon="-0.91959">
        <ele>134.85455322266</ele>
        <time>2021-04-26T13:28:38Z</time>
      </trkpt>
      <trkpt lat="46.96981" lon="-0.91952">
        <ele>136.24670410156</ele>
        <time>2021-04-26T13:28:46Z</time>
      </trkpt>
      <trkpt lat="46.96974" lon="-0.91946">
        <ele>130.19244384766</ele>
        <time>2021-04-26T13:28:52Z</time>
      </trkpt>
      <trkpt lat="46.96967" lon="-0.91942">
        <ele>128.99548339844</ele>
        <time>2021-04-26T13:28:59Z</time>
      </trkpt>
      <trkpt lat="46.96959" lon="-0.91941">
        <ele>130.11254882812</ele>
        <time>2021-04-26T13:29:04Z</time>
      </trkpt>
      <trkpt lat="46.96951" lon="-0.91943">
        <ele>132.02136230469</ele>
        <time>2021-04-26T13:29:11Z</time>
      </trkpt>
      <trkpt lat="46.96944" lon="-0.91951">
        <ele>131.62786865234</ele>
        <time>2021-04-26T13:29:19Z</time>
      </trkpt>
      <trkpt lat="46.96936" lon="-0.91955">
        <ele>131.66149902344</ele>
        <time>2021-04-26T13:29:27Z</time>
      </trkpt>
      <trkpt lat="46.96929" lon="-0.91963">
        <ele>132.95874023438</ele>
        <time>2021-04-26T13:29:35Z</time>
      </trkpt>
      <trkpt lat="46.96921" lon="-0.91966">
        <ele>132.01110839844</ele>
        <time>2021-04-26T13:29:42Z</time>
      </trkpt>
      <trkpt lat="46.96913" lon="-0.91965">
        <ele>129.71099853516</ele>
        <time>2021-04-26T13:29:48Z</time>
      </trkpt>
      <trkpt lat="46.96904" lon="-0.91967">
        <ele>128.68811035156</ele>
        <time>2021-04-26T13:29:58Z</time>
      </trkpt>
      <trkpt lat="46.96896" lon="-0.91971">
        <ele>128.52868652344</ele>
        <time>2021-04-26T13:30:06Z</time>
      </trkpt>
      <trkpt lat="46.96888" lon="-0.91976">
        <ele>127.37646484375</ele>
        <time>2021-04-26T13:30:14Z</time>
      </trkpt>
      <trkpt lat="46.9688" lon="-0.91979">
        <ele>125.38323974609</ele>
        <time>2021-04-26T13:30:25Z</time>
      </trkpt>
      <trkpt lat="46.96871" lon="-0.91982">
        <ele>124.67156982422</ele>
        <time>2021-04-26T13:30:34Z</time>
      </trkpt>
      <trkpt lat="46.96864" lon="-0.91987">
        <ele>123.76702880859</ele>
        <time>2021-04-26T13:30:41Z</time>
      </trkpt>
      <trkpt lat="46.96856" lon="-0.91992">
        <ele>122.45880126953</ele>
        <time>2021-04-26T13:30:48Z</time>
      </trkpt>
      <trkpt lat="46.96849" lon="-0.92001">
        <ele>124.27709960938</ele>
        <time>2021-04-26T13:30:57Z</time>
      </trkpt>
      <trkpt lat="46.96844" lon="-0.92011">
        <ele>124.45910644531</ele>
        <time>2021-04-26T13:31:05Z</time>
      </trkpt>
      <trkpt lat="46.96838" lon="-0.9202">
        <ele>125.31274414062</ele>
        <time>2021-04-26T13:31:12Z</time>
      </trkpt>
      <trkpt lat="46.9683" lon="-0.92027">
        <ele>127.69122314453</ele>
        <time>2021-04-26T13:31:20Z</time>
      </trkpt>
      <trkpt lat="46.96822" lon="-0.92032">
        <ele>129.6533203125</ele>
        <time>2021-04-26T13:31:28Z</time>
      </trkpt>
      <trkpt lat="46.96815" lon="-0.92038">
        <ele>133.11267089844</ele>
        <time>2021-04-26T13:31:34Z</time>
      </trkpt>
      <trkpt lat="46.96811" lon="-0.92049">
        <ele>131.56921386719</ele>
        <time>2021-04-26T13:31:41Z</time>
      </trkpt>
      <trkpt lat="46.96809" lon="-0.9206">
        <ele>131.51055908203</ele>
        <time>2021-04-26T13:31:50Z</time>
      </trkpt>
      <trkpt lat="46.96809" lon="-0.92073">
        <ele>130.25939941406</ele>
        <time>2021-04-26T13:31:58Z</time>
      </trkpt>
      <trkpt lat="46.96804" lon="-0.92083">
        <ele>141.25012207031</ele>
        <time>2021-04-26T13:32:09Z</time>
      </trkpt>
      <trkpt lat="46.96797" lon="-0.92088">
        <ele>131.22216796875</ele>
        <time>2021-04-26T13:32:17Z</time>
      </trkpt>
      <trkpt lat="46.96789" lon="-0.92093">
        <ele>136.69683837891</ele>
        <time>2021-04-26T13:32:26Z</time>
      </trkpt>
      <trkpt lat="46.96783" lon="-0.92099">
        <ele>136.48962402344</ele>
        <time>2021-04-26T13:32:34Z</time>
      </trkpt>
      <trkpt lat="46.96777" lon="-0.92108">
        <ele>135.37658691406</ele>
        <time>2021-04-26T13:32:40Z</time>
      </trkpt>
      <trkpt lat="46.96769" lon="-0.92113">
        <ele>130.47467041016</ele>
        <time>2021-04-26T13:32:53Z</time>
      </trkpt>
      <trkpt lat="46.96763" lon="-0.92121">
        <ele>126.49078369141</ele>
        <time>2021-04-26T13:33:02Z</time>
      </trkpt>
      <trkpt lat="46.96759" lon="-0.92133">
        <ele>121.72509765625</ele>
        <time>2021-04-26T13:33:09Z</time>
      </trkpt>
      <trkpt lat="46.96755" lon="-0.92143">
        <ele>127.62854003906</ele>
        <time>2021-04-26T13:33:15Z</time>
      </trkpt>
      <trkpt lat="46.96751" lon="-0.92154">
        <ele>126.73986816406</ele>
        <time>2021-04-26T13:33:23Z</time>
      </trkpt>
      <trkpt lat="46.96754" lon="-0.92166">
        <ele>124.64129638672</ele>
        <time>2021-04-26T13:33:32Z</time>
      </trkpt>
      <trkpt lat="46.96753" lon="-0.92179">
        <ele>124.51092529297</ele>
        <time>2021-04-26T13:33:40Z</time>
      </trkpt>
      <trkpt lat="46.96748" lon="-0.92189">
        <ele>125.45465087891</ele>
        <time>2021-04-26T13:33:47Z</time>
      </trkpt>
      <trkpt lat="46.96744" lon="-0.92199">
        <ele>124.01403808594</ele>
        <time>2021-04-26T13:33:56Z</time>
      </trkpt>
      <trkpt lat="46.96738" lon="-0.92208">
        <ele>120.67065429688</ele>
        <time>2021-04-26T13:34:04Z</time>
      </trkpt>
      <trkpt lat="46.96732" lon="-0.92218">
        <ele>116.27917480469</ele>
        <time>2021-04-26T13:34:17Z</time>
      </trkpt>
      <trkpt lat="46.96725" lon="-0.92215">
        <ele>115.57788085938</ele>
        <time>2021-04-26T13:34:31Z</time>
      </trkpt>
      <trkpt lat="46.96716" lon="-0.92212">
        <ele>115.94653320312</ele>
        <time>2021-04-26T13:34:37Z</time>
      </trkpt>
      <trkpt lat="46.96709" lon="-0.92215">
        <ele>117.44281005859</ele>
        <time>2021-04-26T13:34:42Z</time>
      </trkpt>
      <trkpt lat="46.967" lon="-0.92214">
        <ele>118.96984863281</ele>
        <time>2021-04-26T13:34:50Z</time>
      </trkpt>
      <trkpt lat="46.96692" lon="-0.9221">
        <ele>119.24444580078</ele>
        <time>2021-04-26T13:34:57Z</time>
      </trkpt>
      <trkpt lat="46.96685" lon="-0.92215">
        <ele>116.84106445312</ele>
        <time>2021-04-26T13:35:04Z</time>
      </trkpt>
      <trkpt lat="46.96677" lon="-0.92218">
        <ele>115.39721679688</ele>
        <time>2021-04-26T13:35:17Z</time>
      </trkpt>
      <trkpt lat="46.96669" lon="-0.92222">
        <ele>110.60998535156</ele>
        <time>2021-04-26T13:35:26Z</time>
      </trkpt>
      <trkpt lat="46.96663" lon="-0.9223">
        <ele>109.99279785156</ele>
        <time>2021-04-26T13:35:36Z</time>
      </trkpt>
      <trkpt lat="46.96657" lon="-0.9224">
        <ele>112.23162841797</ele>
        <time>2021-04-26T13:36:01Z</time>
      </trkpt>
      <trkpt lat="46.96659" lon="-0.92228">
        <ele>114.35144042969</ele>
        <time>2021-04-26T13:36:30Z</time>
      </trkpt>
      <trkpt lat="46.96666" lon="-0.9222">
        <ele>115.19970703125</ele>
        <time>2021-04-26T13:36:44Z</time>
      </trkpt>
      <trkpt lat="46.96661" lon="-0.92209">
        <ele>108.64660644531</ele>
        <time>2021-04-26T13:37:10Z</time>
      </trkpt>
      <trkpt lat="46.96662" lon="-0.92197">
        <ele>106.79748535156</ele>
        <time>2021-04-26T13:37:21Z</time>
      </trkpt>
      <trkpt lat="46.96666" lon="-0.92186">
        <ele>107.70166015625</ele>
        <time>2021-04-26T13:37:29Z</time>
      </trkpt>
      <trkpt lat="46.96673" lon="-0.92179">
        <ele>105.50061035156</ele>
        <time>2021-04-26T13:37:39Z</time>
      </trkpt>
      <trkpt lat="46.96681" lon="-0.92174">
        <ele>115.19213867188</ele>
        <time>2021-04-26T13:38:05Z</time>
      </trkpt>
      <trkpt lat="46.96689" lon="-0.92168">
        <ele>113.28045654297</ele>
        <time>2021-04-26T13:38:22Z</time>
      </trkpt>
      <trkpt lat="46.96695" lon="-0.92163">
        <ele>111.84216308594</ele>
        <time>2021-04-26T13:38:28Z</time>
      </trkpt>
      <trkpt lat="46.96702" lon="-0.92157">
        <ele>112.30346679688</ele>
        <time>2021-04-26T13:38:34Z</time>
      </trkpt>
      <trkpt lat="46.96706" lon="-0.92146">
        <ele>110.66412353516</ele>
        <time>2021-04-26T13:38:41Z</time>
      </trkpt>
      <trkpt lat="46.96708" lon="-0.92135">
        <ele>110.09490966797</ele>
        <time>2021-04-26T13:38:48Z</time>
      </trkpt>
      <trkpt lat="46.96713" lon="-0.92125">
        <ele>108.69226074219</ele>
        <time>2021-04-26T13:38:56Z</time>
      </trkpt>
      <trkpt lat="46.96717" lon="-0.92116">
        <ele>107.41436767578</ele>
        <time>2021-04-26T13:39:03Z</time>
      </trkpt>
      <trkpt lat="46.96723" lon="-0.92106">
        <ele>112.03271484375</ele>
        <time>2021-04-26T13:39:11Z</time>
      </trkpt>
      <trkpt lat="46.96727" lon="-0.92095">
        <ele>112.77575683594</ele>
        <time>2021-04-26T13:39:19Z</time>
      </trkpt>
      <trkpt lat="46.9673" lon="-0.92084">
        <ele>114.66497802734</ele>
        <time>2021-04-26T13:39:26Z</time>
      </trkpt>
      <trkpt lat="46.96735" lon="-0.92073">
        <ele>115.83312988281</ele>
        <time>2021-04-26T13:39:34Z</time>
      </trkpt>
      <trkpt lat="46.96737" lon="-0.9206">
        <ele>115.01171875</ele>
        <time>2021-04-26T13:39:45Z</time>
      </trkpt>
      <trkpt lat="46.96739" lon="-0.92049">
        <ele>116.36157226562</ele>
        <time>2021-04-26T13:39:53Z</time>
      </trkpt>
      <trkpt lat="46.96739" lon="-0.92036">
        <ele>116.15515136719</ele>
        <time>2021-04-26T13:40:08Z</time>
      </trkpt>
      <trkpt lat="46.96739" lon="-0.92024">
        <ele>107.09368896484</ele>
        <time>2021-04-26T13:40:22Z</time>
      </trkpt>
      <trkpt lat="46.96737" lon="-0.92012">
        <ele>105.02062988281</ele>
        <time>2021-04-26T13:40:29Z</time>
      </trkpt>
      <trkpt lat="46.96733" lon="-0.92002">
        <ele>102.06848144531</ele>
        <time>2021-04-26T13:40:36Z</time>
      </trkpt>
      <trkpt lat="46.96733" lon="-0.9199">
        <ele>102.89587402344</ele>
        <time>2021-04-26T13:40:46Z</time>
      </trkpt>
      <trkpt lat="46.96734" lon="-0.91977">
        <ele>102.76196289062</ele>
        <time>2021-04-26T13:40:53Z</time>
      </trkpt>
      <trkpt lat="46.96732" lon="-0.91966">
        <ele>103.39147949219</ele>
        <time>2021-04-26T13:40:58Z</time>
      </trkpt>
      <trkpt lat="46.96732" lon="-0.91953">
        <ele>104.94769287109</ele>
        <time>2021-04-26T13:41:04Z</time>
      </trkpt>
      <trkpt lat="46.96737" lon="-0.91943">
        <ele>106.05432128906</ele>
        <time>2021-04-26T13:41:15Z</time>
      </trkpt>
      <trkpt lat="46.96743" lon="-0.91934">
        <ele>104.44311523438</ele>
        <time>2021-04-26T13:41:24Z</time>
      </trkpt>
      <trkpt lat="46.96749" lon="-0.91926">
        <ele>106.18615722656</ele>
        <time>2021-04-26T13:41:37Z</time>
      </trkpt>
      <trkpt lat="46.96755" lon="-0.91917">
        <ele>105.59509277344</ele>
        <time>2021-04-26T13:41:43Z</time>
      </trkpt>
      <trkpt lat="46.9676" lon="-0.91907">
        <ele>104.32135009766</ele>
        <time>2021-04-26T13:41:49Z</time>
      </trkpt>
      <trkpt lat="46.96761" lon="-0.91895">
        <ele>102.88403320312</ele>
        <time>2021-04-26T13:41:56Z</time>
      </trkpt>
      <trkpt lat="46.96764" lon="-0.91883">
        <ele>103.37908935547</ele>
        <time>2021-04-26T13:42:05Z</time>
      </trkpt>
      <trkpt lat="46.96767" lon="-0.91872">
        <ele>106.07147216797</ele>
        <time>2021-04-26T13:42:13Z</time>
      </trkpt>
      <trkpt lat="46.96771" lon="-0.91882">
        <ele>104.81854248047</ele>
        <time>2021-04-26T13:42:30Z</time>
      </trkpt>
      <trkpt lat="46.96778" lon="-0.91891">
        <ele>108.06713867188</ele>
        <time>2021-04-26T13:42:46Z</time>
      </trkpt>
      <trkpt lat="46.96786" lon="-0.91897">
        <ele>113.3515625</ele>
        <time>2021-04-26T13:43:03Z</time>
      </trkpt>
      <trkpt lat="46.96792" lon="-0.9189">
        <ele>112.10131835938</ele>
        <time>2021-04-26T13:43:27Z</time>
      </trkpt>
      <trkpt lat="46.96793" lon="-0.91877">
        <ele>112.5810546875</ele>
        <time>2021-04-26T13:43:36Z</time>
      </trkpt>
      <trkpt lat="46.96796" lon="-0.91866">
        <ele>113.71459960938</ele>
        <time>2021-04-26T13:43:44Z</time>
      </trkpt>
      <trkpt lat="46.96801" lon="-0.91856">
        <ele>118.8681640625</ele>
        <time>2021-04-26T13:43:57Z</time>
      </trkpt>
      <trkpt lat="46.9681" lon="-0.91853">
        <ele>117.24029541016</ele>
        <time>2021-04-26T13:44:07Z</time>
      </trkpt>
      <trkpt lat="46.96815" lon="-0.91843">
        <ele>115.92724609375</ele>
        <time>2021-04-26T13:44:18Z</time>
      </trkpt>
      <trkpt lat="46.9682" lon="-0.91834">
        <ele>122.94036865234</ele>
        <time>2021-04-26T13:44:27Z</time>
      </trkpt>
      <trkpt lat="46.96828" lon="-0.91828">
        <ele>119.7158203125</ele>
        <time>2021-04-26T13:44:37Z</time>
      </trkpt>
      <trkpt lat="46.96828" lon="-0.91816">
        <ele>118.81915283203</ele>
        <time>2021-04-26T13:44:52Z</time>
      </trkpt>
      <trkpt lat="46.96826" lon="-0.91804">
        <ele>112.35510253906</ele>
        <time>2021-04-26T13:45:02Z</time>
      </trkpt>
      <trkpt lat="46.96825" lon="-0.91791">
        <ele>110.48065185547</ele>
        <time>2021-04-26T13:45:12Z</time>
      </trkpt>
      <trkpt lat="46.96834" lon="-0.91787">
        <ele>112.81176757812</ele>
        <time>2021-04-26T13:47:34Z</time>
      </trkpt>
      <trkpt lat="46.96838" lon="-0.91776">
        <ele>113.23370361328</ele>
        <time>2021-04-26T13:47:49Z</time>
      </trkpt>
      <trkpt lat="46.96844" lon="-0.91767">
        <ele>113.38116455078</ele>
        <time>2021-04-26T13:48:04Z</time>
      </trkpt>
      <trkpt lat="46.96852" lon="-0.91762">
        <ele>113.58862304688</ele>
        <time>2021-04-26T13:48:13Z</time>
      </trkpt>
      <trkpt lat="46.9686" lon="-0.91765">
        <ele>116.14526367188</ele>
        <time>2021-04-26T13:48:22Z</time>
      </trkpt>
      <trkpt lat="46.96868" lon="-0.91768">
        <ele>117.56958007812</ele>
        <time>2021-04-26T13:48:33Z</time>
      </trkpt>
      <trkpt lat="46.96875" lon="-0.91774">
        <ele>117.97143554688</ele>
        <time>2021-04-26T13:48:43Z</time>
      </trkpt>
      <trkpt lat="46.96883" lon="-0.91777">
        <ele>119.94848632812</ele>
        <time>2021-04-26T13:48:53Z</time>
      </trkpt>
      <trkpt lat="46.96891" lon="-0.91781">
        <ele>117.611328125</ele>
        <time>2021-04-26T13:49:01Z</time>
      </trkpt>
      <trkpt lat="46.969" lon="-0.91783">
        <ele>117.11352539062</ele>
        <time>2021-04-26T13:49:11Z</time>
      </trkpt>
      <trkpt lat="46.96908" lon="-0.91779">
        <ele>115.60992431641</ele>
        <time>2021-04-26T13:49:18Z</time>
      </trkpt>
      <trkpt lat="46.96916" lon="-0.91772">
        <ele>115.03387451172</ele>
        <time>2021-04-26T13:49:30Z</time>
      </trkpt>
      <trkpt lat="46.96924" lon="-0.91768">
        <ele>116.39013671875</ele>
        <time>2021-04-26T13:49:39Z</time>
      </trkpt>
      <trkpt lat="46.96931" lon="-0.91762">
        <ele>116.63549804688</ele>
        <time>2021-04-26T13:49:46Z</time>
      </trkpt>
      <trkpt lat="46.96937" lon="-0.91755">
        <ele>128.38592529297</ele>
        <time>2021-04-26T13:49:53Z</time>
      </trkpt>
      <trkpt lat="46.96945" lon="-0.91751">
        <ele>122.18280029297</ele>
        <time>2021-04-26T13:49:59Z</time>
      </trkpt>
      <trkpt lat="46.96951" lon="-0.91743">
        <ele>118.30407714844</ele>
        <time>2021-04-26T13:50:08Z</time>
      </trkpt>
      <trkpt lat="46.96958" lon="-0.91737">
        <ele>115.40637207031</ele>
        <time>2021-04-26T13:50:17Z</time>
      </trkpt>
      <trkpt lat="46.96965" lon="-0.91731">
        <ele>118.01470947266</ele>
        <time>2021-04-26T13:50:24Z</time>
      </trkpt>
      <trkpt lat="46.96973" lon="-0.91728">
        <ele>116.35174560547</ele>
        <time>2021-04-26T13:50:32Z</time>
      </trkpt>
      <trkpt lat="46.9698" lon="-0.91724">
        <ele>117.62554931641</ele>
        <time>2021-04-26T13:50:39Z</time>
      </trkpt>
      <trkpt lat="46.96989" lon="-0.91722">
        <ele>116.45648193359</ele>
        <time>2021-04-26T13:50:46Z</time>
      </trkpt>
      <trkpt lat="46.96996" lon="-0.91714">
        <ele>116.87841796875</ele>
        <time>2021-04-26T13:50:58Z</time>
      </trkpt>
      <trkpt lat="46.96987" lon="-0.91711">
        <ele>112.6083984375</ele>
        <time>2021-04-26T13:51:09Z</time>
      </trkpt>
      <trkpt lat="46.96979" lon="-0.91708">
        <ele>113.52319335938</ele>
        <time>2021-04-26T13:51:15Z</time>
      </trkpt>
      <trkpt lat="46.96971" lon="-0.91708">
        <ele>113.45373535156</ele>
        <time>2021-04-26T13:51:22Z</time>
      </trkpt>
      <trkpt lat="46.96966" lon="-0.91697">
        <ele>110.46466064453</ele>
        <time>2021-04-26T13:51:45Z</time>
      </trkpt>
      <trkpt lat="46.96967" lon="-0.91686">
        <ele>111.02856445312</ele>
        <time>2021-04-26T13:51:53Z</time>
      </trkpt>
      <trkpt lat="46.96969" lon="-0.91674">
        <ele>113.98931884766</ele>
        <time>2021-04-26T13:51:59Z</time>
      </trkpt>
      <trkpt lat="46.96966" lon="-0.91662">
        <ele>110.35437011719</ele>
        <time>2021-04-26T13:52:13Z</time>
      </trkpt>
      <trkpt lat="46.9696" lon="-0.91652">
        <ele>110.14611816406</ele>
        <time>2021-04-26T13:52:25Z</time>
      </trkpt>
      <trkpt lat="46.96957" lon="-0.91641">
        <ele>112.78948974609</ele>
        <time>2021-04-26T13:52:38Z</time>
      </trkpt>
      <trkpt lat="46.96962" lon="-0.9163">
        <ele>114.37121582031</ele>
        <time>2021-04-26T13:52:50Z</time>
      </trkpt>
      <trkpt lat="46.96966" lon="-0.91619">
        <ele>114.60046386719</ele>
        <time>2021-04-26T13:53:02Z</time>
      </trkpt>
      <trkpt lat="46.96971" lon="-0.91609">
        <ele>112.87005615234</ele>
        <time>2021-04-26T13:53:17Z</time>
      </trkpt>
      <trkpt lat="46.96974" lon="-0.91598">
        <ele>111.94842529297</ele>
        <time>2021-04-26T13:53:28Z</time>
      </trkpt>
      <trkpt lat="46.96977" lon="-0.91587">
        <ele>112.09777832031</ele>
        <time>2021-04-26T13:53:35Z</time>
      </trkpt>
      <trkpt lat="46.96983" lon="-0.91579">
        <ele>117.42742919922</ele>
        <time>2021-04-26T13:53:45Z</time>
      </trkpt>
      <trkpt lat="46.96989" lon="-0.91569">
        <ele>116.73486328125</ele>
        <time>2021-04-26T13:53:53Z</time>
      </trkpt>
      <trkpt lat="46.96998" lon="-0.91568">
        <ele>114.38586425781</ele>
        <time>2021-04-26T13:54:02Z</time>
      </trkpt>
      <trkpt lat="46.97006" lon="-0.91564">
        <ele>112.96740722656</ele>
        <time>2021-04-26T13:54:12Z</time>
      </trkpt>
      <trkpt lat="46.97014" lon="-0.91566">
        <ele>112.45690917969</ele>
        <time>2021-04-26T13:54:22Z</time>
      </trkpt>
      <trkpt lat="46.9702" lon="-0.91557">
        <ele>115.64739990234</ele>
        <time>2021-04-26T13:54:33Z</time>
      </trkpt>
      <trkpt lat="46.97028" lon="-0.91553">
        <ele>116.65319824219</ele>
        <time>2021-04-26T13:54:47Z</time>
      </trkpt>
      <trkpt lat="46.9703" lon="-0.91541">
        <ele>117.78344726562</ele>
        <time>2021-04-26T13:54:59Z</time>
      </trkpt>
      <trkpt lat="46.97026" lon="-0.91529">
        <ele>118.28515625</ele>
        <time>2021-04-26T13:55:07Z</time>
      </trkpt>
      <trkpt lat="46.97023" lon="-0.91518">
        <ele>120.90026855469</ele>
        <time>2021-04-26T13:55:16Z</time>
      </trkpt>
      <trkpt lat="46.97028" lon="-0.91508">
        <ele>125.16815185547</ele>
        <time>2021-04-26T13:55:32Z</time>
      </trkpt>
      <trkpt lat="46.97028" lon="-0.91495">
        <ele>125.23559570312</ele>
        <time>2021-04-26T13:55:44Z</time>
      </trkpt>
      <trkpt lat="46.97033" lon="-0.91484">
        <ele>124.04266357422</ele>
        <time>2021-04-26T13:55:59Z</time>
      </trkpt>
      <trkpt lat="46.97034" lon="-0.91472">
        <ele>128.60986328125</ele>
        <time>2021-04-26T13:56:18Z</time>
      </trkpt>
      <trkpt lat="46.97032" lon="-0.9146">
        <ele>129.66033935547</ele>
        <time>2021-04-26T13:56:24Z</time>
      </trkpt>
      <trkpt lat="46.9703" lon="-0.91448">
        <ele>129.11486816406</ele>
        <time>2021-04-26T13:56:32Z</time>
      </trkpt>
      <trkpt lat="46.9703" lon="-0.91435">
        <ele>128.97875976562</ele>
        <time>2021-04-26T13:56:38Z</time>
      </trkpt>
      <trkpt lat="46.97028" lon="-0.91423">
        <ele>128.88714599609</ele>
        <time>2021-04-26T13:56:47Z</time>
      </trkpt>
      <trkpt lat="46.97028" lon="-0.9141">
        <ele>129.50402832031</ele>
        <time>2021-04-26T13:56:59Z</time>
      </trkpt>
      <trkpt lat="46.97021" lon="-0.91403">
        <ele>130.04705810547</ele>
        <time>2021-04-26T13:57:11Z</time>
      </trkpt>
      <trkpt lat="46.97017" lon="-0.91392">
        <ele>127.72778320312</ele>
        <time>2021-04-26T13:57:21Z</time>
      </trkpt>
      <trkpt lat="46.97012" lon="-0.91383">
        <ele>128.75158691406</ele>
        <time>2021-04-26T13:57:30Z</time>
      </trkpt>
      <trkpt lat="46.97011" lon="-0.9137">
        <ele>124.83435058594</ele>
        <time>2021-04-26T13:57:39Z</time>
      </trkpt>
      <trkpt lat="46.97005" lon="-0.91361">
        <ele>122.60827636719</ele>
        <time>2021-04-26T13:57:53Z</time>
      </trkpt>
      <trkpt lat="46.96997" lon="-0.91355">
        <ele>121.15490722656</ele>
        <time>2021-04-26T13:58:05Z</time>
      </trkpt>
      <trkpt lat="46.9699" lon="-0.91349">
        <ele>121.08026123047</ele>
        <time>2021-04-26T13:58:14Z</time>
      </trkpt>
      <trkpt lat="46.96987" lon="-0.91337">
        <ele>118.64483642578</ele>
        <time>2021-04-26T13:58:23Z</time>
      </trkpt>
      <trkpt lat="46.96983" lon="-0.91327">
        <ele>118.98577880859</ele>
        <time>2021-04-26T13:58:32Z</time>
      </trkpt>
      <trkpt lat="46.96982" lon="-0.91314">
        <ele>118.51342773438</ele>
        <time>2021-04-26T13:58:58Z</time>
      </trkpt>
      <trkpt lat="46.96985" lon="-0.91302">
        <ele>120.48083496094</ele>
        <time>2021-04-26T13:59:10Z</time>
      </trkpt>
      <trkpt lat="46.96984" lon="-0.91289">
        <ele>119.63928222656</ele>
        <time>2021-04-26T13:59:38Z</time>
      </trkpt>
      <trkpt lat="46.96989" lon="-0.91279">
        <ele>123.59271240234</ele>
        <time>2021-04-26T14:00:24Z</time>
      </trkpt>
      <trkpt lat="46.96988" lon="-0.91265">
        <ele>119.92028808594</ele>
        <time>2021-04-26T14:00:29Z</time>
      </trkpt>
      <trkpt lat="46.96988" lon="-0.91252">
        <ele>119.25244140625</ele>
        <time>2021-04-26T14:00:35Z</time>
      </trkpt>
      <trkpt lat="46.96991" lon="-0.9124">
        <ele>119.80792236328</ele>
        <time>2021-04-26T14:00:40Z</time>
      </trkpt>
      <trkpt lat="46.96992" lon="-0.91227">
        <ele>121.42504882812</ele>
        <time>2021-04-26T14:00:47Z</time>
      </trkpt>
      <trkpt lat="46.96993" lon="-0.91215">
        <ele>121.44842529297</ele>
        <time>2021-04-26T14:00:56Z</time>
      </trkpt>
      <trkpt lat="46.96995" lon="-0.91203">
        <ele>121.94281005859</ele>
        <time>2021-04-26T14:01:08Z</time>
      </trkpt>
      <trkpt lat="46.96995" lon="-0.9119">
        <ele>123.11138916016</ele>
        <time>2021-04-26T14:01:15Z</time>
      </trkpt>
      <trkpt lat="46.96996" lon="-0.91177">
        <ele>123.14605712891</ele>
        <time>2021-04-26T14:01:22Z</time>
      </trkpt>
      <trkpt lat="46.96999" lon="-0.91165">
        <ele>122.45520019531</ele>
        <time>2021-04-26T14:01:31Z</time>
      </trkpt>
      <trkpt lat="46.97002" lon="-0.91154">
        <ele>121.79968261719</ele>
        <time>2021-04-26T14:01:43Z</time>
      </trkpt>
      <trkpt lat="46.97007" lon="-0.91144">
        <ele>123.25579833984</ele>
        <time>2021-04-26T14:02:03Z</time>
      </trkpt>
      <trkpt lat="46.97012" lon="-0.91133">
        <ele>120.08087158203</ele>
        <time>2021-04-26T14:02:20Z</time>
      </trkpt>
      <trkpt lat="46.97016" lon="-0.91122">
        <ele>118.21282958984</ele>
        <time>2021-04-26T14:02:28Z</time>
      </trkpt>
      <trkpt lat="46.97019" lon="-0.9111">
        <ele>116.09594726562</ele>
        <time>2021-04-26T14:02:39Z</time>
      </trkpt>
      <trkpt lat="46.97016" lon="-0.91097">
        <ele>118.17626953125</ele>
        <time>2021-04-26T14:02:45Z</time>
      </trkpt>
      <trkpt lat="46.97011" lon="-0.91087">
        <ele>118.78576660156</ele>
        <time>2021-04-26T14:02:52Z</time>
      </trkpt>
      <trkpt lat="46.97005" lon="-0.91079">
        <ele>116.54907226562</ele>
        <time>2021-04-26T14:03:01Z</time>
      </trkpt>
      <trkpt lat="46.97011" lon="-0.91068">
        <ele>120.92822265625</ele>
        <time>2021-04-26T14:03:22Z</time>
      </trkpt>
      <trkpt lat="46.97004" lon="-0.91059">
        <ele>118.77081298828</ele>
        <time>2021-04-26T14:03:43Z</time>
      </trkpt>
      <trkpt lat="46.97" lon="-0.91049">
        <ele>116.82537841797</ele>
        <time>2021-04-26T14:03:54Z</time>
      </trkpt>
      <trkpt lat="46.97" lon="-0.91036">
        <ele>115.05041503906</ele>
        <time>2021-04-26T14:04:08Z</time>
      </trkpt>
      <trkpt lat="46.97006" lon="-0.91028">
        <ele>117.59204101562</ele>
        <time>2021-04-26T14:04:19Z</time>
      </trkpt>
      <trkpt lat="46.97012" lon="-0.91019">
        <ele>119.02313232422</ele>
        <time>2021-04-26T14:04:34Z</time>
      </trkpt>
      <trkpt lat="46.97019" lon="-0.91012">
        <ele>116.77349853516</ele>
        <time>2021-04-26T14:04:50Z</time>
      </trkpt>
      <trkpt lat="46.97021" lon="-0.90999">
        <ele>115.45184326172</ele>
        <time>2021-04-26T14:05:16Z</time>
      </trkpt>
      <trkpt lat="46.97013" lon="-0.90995">
        <ele>114.92578125</ele>
        <time>2021-04-26T14:05:23Z</time>
      </trkpt>
      <trkpt lat="46.97006" lon="-0.90993">
        <ele>111.8056640625</ele>
        <time>2021-04-26T14:05:40Z</time>
      </trkpt>
      <trkpt lat="46.96998" lon="-0.90986">
        <ele>114.80834960938</ele>
        <time>2021-04-26T14:05:51Z</time>
      </trkpt>
      <trkpt lat="46.96996" lon="-0.90974">
        <ele>110.90234375</ele>
        <time>2021-04-26T14:06:10Z</time>
      </trkpt>
      <trkpt lat="46.96999" lon="-0.90962">
        <ele>112.73132324219</ele>
        <time>2021-04-26T14:06:28Z</time>
      </trkpt>
      <trkpt lat="46.97" lon="-0.9095">
        <ele>108.72125244141</ele>
        <time>2021-04-26T14:06:44Z</time>
      </trkpt>
      <trkpt lat="46.96997" lon="-0.90939">
        <ele>109.69549560547</ele>
        <time>2021-04-26T14:06:53Z</time>
      </trkpt>
      <trkpt lat="46.96996" lon="-0.90926">
        <ele>111.37322998047</ele>
        <time>2021-04-26T14:07:00Z</time>
      </trkpt>
      <trkpt lat="46.96991" lon="-0.90915">
        <ele>107.52142333984</ele>
        <time>2021-04-26T14:07:09Z</time>
      </trkpt>
      <trkpt lat="46.96987" lon="-0.90906">
        <ele>111.40991210938</ele>
        <time>2021-04-26T14:07:16Z</time>
      </trkpt>
      <trkpt lat="46.96984" lon="-0.90894">
        <ele>107.40869140625</ele>
        <time>2021-04-26T14:07:27Z</time>
      </trkpt>
      <trkpt lat="46.9698" lon="-0.90883">
        <ele>101.10052490234</ele>
        <time>2021-04-26T14:07:36Z</time>
      </trkpt>
      <trkpt lat="46.96977" lon="-0.90871">
        <ele>104.43298339844</ele>
        <time>2021-04-26T14:07:41Z</time>
      </trkpt>
      <trkpt lat="46.96975" lon="-0.90858">
        <ele>106.31140136719</ele>
        <time>2021-04-26T14:07:48Z</time>
      </trkpt>
      <trkpt lat="46.96974" lon="-0.90847">
        <ele>106.96142578125</ele>
        <time>2021-04-26T14:07:55Z</time>
      </trkpt>
      <trkpt lat="46.9697" lon="-0.90837">
        <ele>105.19189453125</ele>
        <time>2021-04-26T14:08:02Z</time>
      </trkpt>
      <trkpt lat="46.96963" lon="-0.90828">
        <ele>99.320922851562</ele>
        <time>2021-04-26T14:08:12Z</time>
      </trkpt>
      <trkpt lat="46.96957" lon="-0.90819">
        <ele>98.564575195312</ele>
        <time>2021-04-26T14:08:19Z</time>
      </trkpt>
      <trkpt lat="46.96955" lon="-0.90807">
        <ele>106.51574707031</ele>
        <time>2021-04-26T14:08:30Z</time>
      </trkpt>
      <trkpt lat="46.96954" lon="-0.90795">
        <ele>105.11755371094</ele>
        <time>2021-04-26T14:08:37Z</time>
      </trkpt>
      <trkpt lat="46.96952" lon="-0.90783">
        <ele>105.11633300781</ele>
        <time>2021-04-26T14:08:47Z</time>
      </trkpt>
      <trkpt lat="46.9695" lon="-0.90771">
        <ele>102.23321533203</ele>
        <time>2021-04-26T14:08:53Z</time>
      </trkpt>
      <trkpt lat="46.96947" lon="-0.9076">
        <ele>101.60345458984</ele>
        <time>2021-04-26T14:08:59Z</time>
      </trkpt>
      <trkpt lat="46.96944" lon="-0.90748">
        <ele>105.85107421875</ele>
        <time>2021-04-26T14:09:08Z</time>
      </trkpt>
      <trkpt lat="46.9694" lon="-0.90737">
        <ele>104.34057617188</ele>
        <time>2021-04-26T14:09:16Z</time>
      </trkpt>
      <trkpt lat="46.96934" lon="-0.90729">
        <ele>104.14611816406</ele>
        <time>2021-04-26T14:09:22Z</time>
      </trkpt>
      <trkpt lat="46.96929" lon="-0.90721">
        <ele>103.40270996094</ele>
        <time>2021-04-26T14:09:29Z</time>
      </trkpt>
      <trkpt lat="46.96922" lon="-0.90712">
        <ele>105.07232666016</ele>
        <time>2021-04-26T14:09:35Z</time>
      </trkpt>
      <trkpt lat="46.96915" lon="-0.90706">
        <ele>107.01470947266</ele>
        <time>2021-04-26T14:09:41Z</time>
      </trkpt>
      <trkpt lat="46.96908" lon="-0.90699">
        <ele>105.19030761719</ele>
        <time>2021-04-26T14:09:50Z</time>
      </trkpt>
      <trkpt lat="46.96902" lon="-0.90691">
        <ele>106.59979248047</ele>
        <time>2021-04-26T14:09:57Z</time>
      </trkpt>
      <trkpt lat="46.96894" lon="-0.90686">
        <ele>107.08392333984</ele>
        <time>2021-04-26T14:10:02Z</time>
      </trkpt>
      <trkpt lat="46.96889" lon="-0.90678">
        <ele>108.4091796875</ele>
        <time>2021-04-26T14:10:07Z</time>
      </trkpt>
      <trkpt lat="46.96883" lon="-0.90669">
        <ele>110.09216308594</ele>
        <time>2021-04-26T14:10:13Z</time>
      </trkpt>
      <trkpt lat="46.96879" lon="-0.90658">
        <ele>108.19311523438</ele>
        <time>2021-04-26T14:10:27Z</time>
      </trkpt>
      <trkpt lat="46.96873" lon="-0.90648">
        <ele>103.98071289062</ele>
        <time>2021-04-26T14:10:35Z</time>
      </trkpt>
      <trkpt lat="46.96867" lon="-0.9064">
        <ele>100.77142333984</ele>
        <time>2021-04-26T14:10:43Z</time>
      </trkpt>
      <trkpt lat="46.96861" lon="-0.90632">
        <ele>100.61401367188</ele>
        <time>2021-04-26T14:10:50Z</time>
      </trkpt>
      <trkpt lat="46.96855" lon="-0.90625">
        <ele>103.35992431641</ele>
        <time>2021-04-26T14:10:56Z</time>
      </trkpt>
      <trkpt lat="46.96848" lon="-0.90619">
        <ele>105.84460449219</ele>
        <time>2021-04-26T14:11:02Z</time>
      </trkpt>
      <trkpt lat="46.96843" lon="-0.90609">
        <ele>104.66320800781</ele>
        <time>2021-04-26T14:11:08Z</time>
      </trkpt>
      <trkpt lat="46.96838" lon="-0.90601">
        <ele>106.64520263672</ele>
        <time>2021-04-26T14:11:13Z</time>
      </trkpt>
      <trkpt lat="46.96831" lon="-0.90593">
        <ele>103.75250244141</ele>
        <time>2021-04-26T14:11:20Z</time>
      </trkpt>
      <trkpt lat="46.96825" lon="-0.90583">
        <ele>98.452087402344</ele>
        <time>2021-04-26T14:11:30Z</time>
      </trkpt>
      <trkpt lat="46.96818" lon="-0.90576">
        <ele>96.013732910156</ele>
        <time>2021-04-26T14:11:38Z</time>
      </trkpt>
      <trkpt lat="46.96811" lon="-0.90569">
        <ele>100.37017822266</ele>
        <time>2021-04-26T14:11:45Z</time>
      </trkpt>
      <trkpt lat="46.96805" lon="-0.9056">
        <ele>100.39892578125</ele>
        <time>2021-04-26T14:11:53Z</time>
      </trkpt>
      <trkpt lat="46.96797" lon="-0.90554">
        <ele>101.34936523438</ele>
        <time>2021-04-26T14:11:59Z</time>
      </trkpt>
      <trkpt lat="46.9679" lon="-0.9055">
        <ele>103.26165771484</ele>
        <time>2021-04-26T14:12:06Z</time>
      </trkpt>
      <trkpt lat="46.96781" lon="-0.90549">
        <ele>106.58258056641</ele>
        <time>2021-04-26T14:12:14Z</time>
      </trkpt>
      <trkpt lat="46.96773" lon="-0.90547">
        <ele>106.7314453125</ele>
        <time>2021-04-26T14:12:24Z</time>
      </trkpt>
      <trkpt lat="46.9677" lon="-0.90535">
        <ele>102.15380859375</ele>
        <time>2021-04-26T14:13:07Z</time>
      </trkpt>
      <trkpt lat="46.96765" lon="-0.90525">
        <ele>101.74731445312</ele>
        <time>2021-04-26T14:13:14Z</time>
      </trkpt>
      <trkpt lat="46.96759" lon="-0.90517">
        <ele>101.77081298828</ele>
        <time>2021-04-26T14:13:21Z</time>
      </trkpt>
      <trkpt lat="46.96751" lon="-0.90509">
        <ele>99.27099609375</ele>
        <time>2021-04-26T14:13:30Z</time>
      </trkpt>
      <trkpt lat="46.96744" lon="-0.90501">
        <ele>101.32727050781</ele>
        <time>2021-04-26T14:13:38Z</time>
      </trkpt>
      <trkpt lat="46.96741" lon="-0.90489">
        <ele>102.08459472656</ele>
        <time>2021-04-26T14:13:46Z</time>
      </trkpt>
      <trkpt lat="46.96737" lon="-0.90479">
        <ele>99.638793945312</ele>
        <time>2021-04-26T14:13:56Z</time>
      </trkpt>
      <trkpt lat="46.96732" lon="-0.90469">
        <ele>100.61810302734</ele>
        <time>2021-04-26T14:14:04Z</time>
      </trkpt>
      <trkpt lat="46.96729" lon="-0.90458">
        <ele>100.46282958984</ele>
        <time>2021-04-26T14:14:11Z</time>
      </trkpt>
      <trkpt lat="46.96727" lon="-0.90446">
        <ele>100.38024902344</ele>
        <time>2021-04-26T14:14:19Z</time>
      </trkpt>
      <trkpt lat="46.96725" lon="-0.90433">
        <ele>98.621765136719</ele>
        <time>2021-04-26T14:14:27Z</time>
      </trkpt>
      <trkpt lat="46.96727" lon="-0.90421">
        <ele>99.858642578125</ele>
        <time>2021-04-26T14:14:35Z</time>
      </trkpt>
      <trkpt lat="46.96727" lon="-0.90409">
        <ele>100.69348144531</ele>
        <time>2021-04-26T14:14:41Z</time>
      </trkpt>
      <trkpt lat="46.96725" lon="-0.90397">
        <ele>100.99072265625</ele>
        <time>2021-04-26T14:14:48Z</time>
      </trkpt>
      <trkpt lat="46.96725" lon="-0.90385">
        <ele>102.23370361328</ele>
        <time>2021-04-26T14:14:55Z</time>
      </trkpt>
      <trkpt lat="46.96725" lon="-0.90372">
        <ele>101.58666992188</ele>
        <time>2021-04-26T14:15:03Z</time>
      </trkpt>
      <trkpt lat="46.96723" lon="-0.9036">
        <ele>100.55773925781</ele>
        <time>2021-04-26T14:15:10Z</time>
      </trkpt>
      <trkpt lat="46.9672" lon="-0.90349">
        <ele>101.64086914062</ele>
        <time>2021-04-26T14:15:18Z</time>
      </trkpt>
      <trkpt lat="46.96717" lon="-0.90337">
        <ele>101.12841796875</ele>
        <time>2021-04-26T14:15:27Z</time>
      </trkpt>
      <trkpt lat="46.96713" lon="-0.90326">
        <ele>99.160522460938</ele>
        <time>2021-04-26T14:15:35Z</time>
      </trkpt>
      <trkpt lat="46.96707" lon="-0.9032">
        <ele>101.24938964844</ele>
        <time>2021-04-26T14:15:42Z</time>
      </trkpt>
      <trkpt lat="46.967" lon="-0.90311">
        <ele>100.91015625</ele>
        <time>2021-04-26T14:15:49Z</time>
      </trkpt>
      <trkpt lat="46.96695" lon="-0.90303">
        <ele>102.42443847656</ele>
        <time>2021-04-26T14:15:56Z</time>
      </trkpt>
      <trkpt lat="46.96688" lon="-0.90295">
        <ele>102.14794921875</ele>
        <time>2021-04-26T14:16:05Z</time>
      </trkpt>
      <trkpt lat="46.96682" lon="-0.90288">
        <ele>108.13159179688</ele>
        <time>2021-04-26T14:16:12Z</time>
      </trkpt>
      <trkpt lat="46.96674" lon="-0.90282">
        <ele>106.05346679688</ele>
        <time>2021-04-26T14:16:19Z</time>
      </trkpt>
      <trkpt lat="46.96667" lon="-0.90277">
        <ele>107.49926757812</ele>
        <time>2021-04-26T14:16:24Z</time>
      </trkpt>
      <trkpt lat="46.96661" lon="-0.9027">
        <ele>108.97045898438</ele>
        <time>2021-04-26T14:16:30Z</time>
      </trkpt>
      <trkpt lat="46.96654" lon="-0.90261">
        <ele>109.48455810547</ele>
        <time>2021-04-26T14:16:41Z</time>
      </trkpt>
      <trkpt lat="46.96648" lon="-0.90254">
        <ele>109.48156738281</ele>
        <time>2021-04-26T14:16:48Z</time>
      </trkpt>
      <trkpt lat="46.96641" lon="-0.90247">
        <ele>106.56860351562</ele>
        <time>2021-04-26T14:16:57Z</time>
      </trkpt>
      <trkpt lat="46.96634" lon="-0.90241">
        <ele>106.17834472656</ele>
        <time>2021-04-26T14:17:04Z</time>
      </trkpt>
      <trkpt lat="46.96627" lon="-0.90236">
        <ele>106.17535400391</ele>
        <time>2021-04-26T14:17:11Z</time>
      </trkpt>
      <trkpt lat="46.96619" lon="-0.9023">
        <ele>107.92742919922</ele>
        <time>2021-04-26T14:17:17Z</time>
      </trkpt>
      <trkpt lat="46.96612" lon="-0.90224">
        <ele>107.92132568359</ele>
        <time>2021-04-26T14:17:23Z</time>
      </trkpt>
      <trkpt lat="46.96605" lon="-0.90218">
        <ele>107.78277587891</ele>
        <time>2021-04-26T14:17:30Z</time>
      </trkpt>
      <trkpt lat="46.96599" lon="-0.9021">
        <ele>109.54443359375</ele>
        <time>2021-04-26T14:17:36Z</time>
      </trkpt>
      <trkpt lat="46.96591" lon="-0.90205">
        <ele>108.64807128906</ele>
        <time>2021-04-26T14:17:44Z</time>
      </trkpt>
      <trkpt lat="46.96584" lon="-0.90198">
        <ele>103.15356445312</ele>
        <time>2021-04-26T14:17:57Z</time>
      </trkpt>
      <trkpt lat="46.96575" lon="-0.90197">
        <ele>103.79089355469</ele>
        <time>2021-04-26T14:18:08Z</time>
      </trkpt>
      <trkpt lat="46.96566" lon="-0.902">
        <ele>105.02575683594</ele>
        <time>2021-04-26T14:18:17Z</time>
      </trkpt>
      <trkpt lat="46.96561" lon="-0.90211">
        <ele>104.55627441406</ele>
        <time>2021-04-26T14:18:26Z</time>
      </trkpt>
      <trkpt lat="46.96552" lon="-0.90212">
        <ele>104.8212890625</ele>
        <time>2021-04-26T14:18:33Z</time>
      </trkpt>
      <trkpt lat="46.96544" lon="-0.90214">
        <ele>106.15209960938</ele>
        <time>2021-04-26T14:18:40Z</time>
      </trkpt>
      <trkpt lat="46.96535" lon="-0.90214">
        <ele>105.20135498047</ele>
        <time>2021-04-26T14:18:49Z</time>
      </trkpt>
      <trkpt lat="46.96528" lon="-0.90206">
        <ele>94.036437988281</ele>
        <time>2021-04-26T14:19:02Z</time>
      </trkpt>
      <trkpt lat="46.96521" lon="-0.90201">
        <ele>94.790893554688</ele>
        <time>2021-04-26T14:19:09Z</time>
      </trkpt>
      <trkpt lat="46.96514" lon="-0.90194">
        <ele>95.46484375</ele>
        <time>2021-04-26T14:19:17Z</time>
      </trkpt>
      <trkpt lat="46.96506" lon="-0.90189">
        <ele>98.063720703125</ele>
        <time>2021-04-26T14:19:26Z</time>
      </trkpt>
      <trkpt lat="46.96498" lon="-0.90184">
        <ele>102.62707519531</ele>
        <time>2021-04-26T14:19:33Z</time>
      </trkpt>
      <trkpt lat="46.9649" lon="-0.90179">
        <ele>101.39599609375</ele>
        <time>2021-04-26T14:19:49Z</time>
      </trkpt>
      <trkpt lat="46.96483" lon="-0.90174">
        <ele>106.35632324219</ele>
        <time>2021-04-26T14:19:55Z</time>
      </trkpt>
      <trkpt lat="46.96475" lon="-0.90169">
        <ele>105.03387451172</ele>
        <time>2021-04-26T14:20:02Z</time>
      </trkpt>
      <trkpt lat="46.96468" lon="-0.90165">
        <ele>104.40551757812</ele>
        <time>2021-04-26T14:20:08Z</time>
      </trkpt>
      <trkpt lat="46.9646" lon="-0.90163">
        <ele>104.93023681641</ele>
        <time>2021-04-26T14:20:15Z</time>
      </trkpt>
      <trkpt lat="46.96453" lon="-0.90159">
        <ele>105.55346679688</ele>
        <time>2021-04-26T14:20:20Z</time>
      </trkpt>
      <trkpt lat="46.96446" lon="-0.90152">
        <ele>105.32757568359</ele>
        <time>2021-04-26T14:20:26Z</time>
      </trkpt>
      <trkpt lat="46.96439" lon="-0.90146">
        <ele>106.09100341797</ele>
        <time>2021-04-26T14:20:32Z</time>
      </trkpt>
      <trkpt lat="46.96433" lon="-0.90139">
        <ele>105.56427001953</ele>
        <time>2021-04-26T14:20:38Z</time>
      </trkpt>
      <trkpt lat="46.96426" lon="-0.90133">
        <ele>104.45581054688</ele>
        <time>2021-04-26T14:20:45Z</time>
      </trkpt>
      <trkpt lat="46.96419" lon="-0.90125">
        <ele>107.09686279297</ele>
        <time>2021-04-26T14:20:52Z</time>
      </trkpt>
      <trkpt lat="46.96412" lon="-0.90118">
        <ele>110.84289550781</ele>
        <time>2021-04-26T14:20:59Z</time>
      </trkpt>
      <trkpt lat="46.96404" lon="-0.90112">
        <ele>110.74090576172</ele>
        <time>2021-04-26T14:21:06Z</time>
      </trkpt>
      <trkpt lat="46.96398" lon="-0.90103">
        <ele>108.47485351562</ele>
        <time>2021-04-26T14:21:20Z</time>
      </trkpt>
      <trkpt lat="46.96393" lon="-0.90093">
        <ele>109.6259765625</ele>
        <time>2021-04-26T14:21:27Z</time>
      </trkpt>
      <trkpt lat="46.96388" lon="-0.90082">
        <ele>109.74584960938</ele>
        <time>2021-04-26T14:21:35Z</time>
      </trkpt>
      <trkpt lat="46.96382" lon="-0.90074">
        <ele>113.02081298828</ele>
        <time>2021-04-26T14:21:39Z</time>
      </trkpt>
      <trkpt lat="46.96374" lon="-0.90071">
        <ele>110.44921875</ele>
        <time>2021-04-26T14:21:53Z</time>
      </trkpt>
      <trkpt lat="46.96367" lon="-0.90066">
        <ele>111.15887451172</ele>
        <time>2021-04-26T14:22:02Z</time>
      </trkpt>
      <trkpt lat="46.9636" lon="-0.90057">
        <ele>113.58264160156</ele>
        <time>2021-04-26T14:22:09Z</time>
      </trkpt>
      <trkpt lat="46.96352" lon="-0.90056">
        <ele>112.50506591797</ele>
        <time>2021-04-26T14:22:17Z</time>
      </trkpt>
      <trkpt lat="46.96345" lon="-0.90061">
        <ele>112.59576416016</ele>
        <time>2021-04-26T14:22:24Z</time>
      </trkpt>
      <trkpt lat="46.96337" lon="-0.90064">
        <ele>115.83862304688</ele>
        <time>2021-04-26T14:22:33Z</time>
      </trkpt>
      <trkpt lat="46.96328" lon="-0.90066">
        <ele>115.48297119141</ele>
        <time>2021-04-26T14:22:41Z</time>
      </trkpt>
      <trkpt lat="46.9632" lon="-0.9007">
        <ele>115.96789550781</ele>
        <time>2021-04-26T14:22:48Z</time>
      </trkpt>
      <trkpt lat="46.96313" lon="-0.90076">
        <ele>116.06976318359</ele>
        <time>2021-04-26T14:22:59Z</time>
      </trkpt>
      <trkpt lat="46.96304" lon="-0.9008">
        <ele>116.54675292969</ele>
        <time>2021-04-26T14:23:09Z</time>
      </trkpt>
      <trkpt lat="46.96298" lon="-0.90086">
        <ele>119.31317138672</ele>
        <time>2021-04-26T14:23:17Z</time>
      </trkpt>
      <trkpt lat="46.96289" lon="-0.90087">
        <ele>119.40161132812</ele>
        <time>2021-04-26T14:23:29Z</time>
      </trkpt>
      <trkpt lat="46.96281" lon="-0.90085">
        <ele>118.69165039062</ele>
        <time>2021-04-26T14:23:36Z</time>
      </trkpt>
      <trkpt lat="46.96273" lon="-0.90079">
        <ele>120.85717773438</ele>
        <time>2021-04-26T14:23:43Z</time>
      </trkpt>
      <trkpt lat="46.96265" lon="-0.90077">
        <ele>121.02697753906</ele>
        <time>2021-04-26T14:23:52Z</time>
      </trkpt>
      <trkpt lat="46.96256" lon="-0.90075">
        <ele>123.34930419922</ele>
        <time>2021-04-26T14:24:02Z</time>
      </trkpt>
      <trkpt lat="46.96248" lon="-0.90072">
        <ele>124.27313232422</ele>
        <time>2021-04-26T14:24:10Z</time>
      </trkpt>
      <trkpt lat="46.9624" lon="-0.90066">
        <ele>123.61474609375</ele>
        <time>2021-04-26T14:24:18Z</time>
      </trkpt>
      <trkpt lat="46.96232" lon="-0.90068">
        <ele>123.00854492188</ele>
        <time>2021-04-26T14:24:27Z</time>
      </trkpt>
      <trkpt lat="46.96224" lon="-0.90065">
        <ele>122.81512451172</ele>
        <time>2021-04-26T14:24:33Z</time>
      </trkpt>
      <trkpt lat="46.96216" lon="-0.9006">
        <ele>122.18383789062</ele>
        <time>2021-04-26T14:24:42Z</time>
      </trkpt>
      <trkpt lat="46.96209" lon="-0.90055">
        <ele>117.67364501953</ele>
        <time>2021-04-26T14:24:57Z</time>
      </trkpt>
      <trkpt lat="46.962" lon="-0.90054">
        <ele>120.45355224609</ele>
        <time>2021-04-26T14:25:05Z</time>
      </trkpt>
      <trkpt lat="46.96194" lon="-0.90062">
        <ele>119.29974365234</ele>
        <time>2021-04-26T14:25:14Z</time>
      </trkpt>
      <trkpt lat="46.96187" lon="-0.90065">
        <ele>122.0068359375</ele>
        <time>2021-04-26T14:25:20Z</time>
      </trkpt>
      <trkpt lat="46.96178" lon="-0.90066">
        <ele>128.10144042969</ele>
        <time>2021-04-26T14:25:27Z</time>
      </trkpt>
      <trkpt lat="46.9617" lon="-0.90072">
        <ele>129.07586669922</ele>
        <time>2021-04-26T14:25:34Z</time>
      </trkpt>
      <trkpt lat="46.96162" lon="-0.90072">
        <ele>125.4833984375</ele>
        <time>2021-04-26T14:25:57Z</time>
      </trkpt>
      <trkpt lat="46.96154" lon="-0.90067">
        <ele>126.79724121094</ele>
        <time>2021-04-26T14:26:03Z</time>
      </trkpt>
      <trkpt lat="46.96146" lon="-0.90063">
        <ele>127.79406738281</ele>
        <time>2021-04-26T14:26:10Z</time>
      </trkpt>
      <trkpt lat="46.96139" lon="-0.90057">
        <ele>131.53161621094</ele>
        <time>2021-04-26T14:26:19Z</time>
      </trkpt>
      <trkpt lat="46.96131" lon="-0.90051">
        <ele>132.41589355469</ele>
        <time>2021-04-26T14:26:25Z</time>
      </trkpt>
      <trkpt lat="46.96123" lon="-0.90048">
        <ele>131.44848632812</ele>
        <time>2021-04-26T14:26:32Z</time>
      </trkpt>
      <trkpt lat="46.96115" lon="-0.90043">
        <ele>131.37512207031</ele>
        <time>2021-04-26T14:26:39Z</time>
      </trkpt>
      <trkpt lat="46.96106" lon="-0.90041">
        <ele>135.12658691406</ele>
        <time>2021-04-26T14:26:49Z</time>
      </trkpt>
      <trkpt lat="46.96098" lon="-0.90041">
        <ele>132.47882080078</ele>
        <time>2021-04-26T14:26:57Z</time>
      </trkpt>
      <trkpt lat="46.9609" lon="-0.90043">
        <ele>131.36730957031</ele>
        <time>2021-04-26T14:27:04Z</time>
      </trkpt>
      <trkpt lat="46.96082" lon="-0.90046">
        <ele>131.04943847656</ele>
        <time>2021-04-26T14:27:12Z</time>
      </trkpt>
      <trkpt lat="46.96073" lon="-0.90047">
        <ele>131.53875732422</ele>
        <time>2021-04-26T14:27:20Z</time>
      </trkpt>
      <trkpt lat="46.96065" lon="-0.9005">
        <ele>134.92077636719</ele>
        <time>2021-04-26T14:27:29Z</time>
      </trkpt>
      <trkpt lat="46.96057" lon="-0.90047">
        <ele>137.16314697266</ele>
        <time>2021-04-26T14:27:38Z</time>
      </trkpt>
      <trkpt lat="46.96048" lon="-0.90047">
        <ele>136.04577636719</ele>
        <time>2021-04-26T14:27:45Z</time>
      </trkpt>
      <trkpt lat="46.96041" lon="-0.90047">
        <ele>134.66516113281</ele>
        <time>2021-04-26T14:27:51Z</time>
      </trkpt>
      <trkpt lat="46.96032" lon="-0.90046">
        <ele>134.98138427734</ele>
        <time>2021-04-26T14:27:57Z</time>
      </trkpt>
      <trkpt lat="46.96024" lon="-0.90042">
        <ele>134.3115234375</ele>
        <time>2021-04-26T14:28:04Z</time>
      </trkpt>
      <trkpt lat="46.96016" lon="-0.90041">
        <ele>135.39508056641</ele>
        <time>2021-04-26T14:28:11Z</time>
      </trkpt>
      <trkpt lat="46.96008" lon="-0.90038">
        <ele>132.07385253906</ele>
        <time>2021-04-26T14:28:19Z</time>
      </trkpt>
      <trkpt lat="46.95999" lon="-0.90034">
        <ele>129.43884277344</ele>
        <time>2021-04-26T14:28:27Z</time>
      </trkpt>
      <trkpt lat="46.95991" lon="-0.90029">
        <ele>129.86968994141</ele>
        <time>2021-04-26T14:28:34Z</time>
      </trkpt>
      <trkpt lat="46.95982" lon="-0.90025">
        <ele>131.15350341797</ele>
        <time>2021-04-26T14:28:41Z</time>
      </trkpt>
      <trkpt lat="46.95974" lon="-0.90021">
        <ele>129.91046142578</ele>
        <time>2021-04-26T14:28:48Z</time>
      </trkpt>
      <trkpt lat="46.95967" lon="-0.90018">
        <ele>130.67150878906</ele>
        <time>2021-04-26T14:28:55Z</time>
      </trkpt>
      <trkpt lat="46.95958" lon="-0.90018">
        <ele>127.17181396484</ele>
        <time>2021-04-26T14:29:52Z</time>
      </trkpt>
      <trkpt lat="46.95957" lon="-0.90018">
        <ele>127.63598632812</ele>
        <time>2021-04-26T14:29:54Z</time>
      </trkpt>
      <trkpt lat="46.95957" lon="-0.90018">
        <ele>127.63598632812</ele>
        <time>2021-04-26T14:29:54Z</time>
      </trkpt>
    </trkseg>
  </trk>
</gpx>